Observation data for Fort Lewis CO on 01/12/2018      Previous  Date  Next       Current Mesonet Observations  Soil Data  Daily Summary Page  Observations in Plain Language
KFL1 120600Z 04005KT M04/M10 A3026 RMK A01 T10421099  RH  065%=      5-min Rain = 0
KFL1 120601Z 04005KT M05/M11 A3026 RMK A01 T10471108  RH  062%=      5-min Rain = 0
KFL1 120602Z 03005KT M06/M12 A3026 RMK A01 T10581117  RH  063%=      5-min Rain = 0
KFL1 120603Z 05006KT M06/M11 A3026 RMK A01 T10611113  RH  066%=      5-min Rain = 0
KFL1 120604Z 04004KT M06/M11 A3026 RMK A01 T10581107  RH  068%=      5-min Rain = 0
KFL1 120605Z 04004KT M06/M11 A3026 RMK A01 T10561106  RH  068%=      5-min Rain = 0
KFL1 120606Z 05006KT M06/M11 A3026 RMK A01 T10571107  RH  068%=      5-min Rain = 0
KFL1 120607Z 04004KT M05/M10 A3026 RMK A01 T10531103  RH  068%=      5-min Rain = 0
KFL1 120608Z 02004KT M05/M10 A3026 RMK A01 T10531103  RH  068%=      5-min Rain = 0
KFL1 120609Z 01003KT M05/M11 A3026 RMK A01 T10521105  RH  066%=      5-min Rain = 0
KFL1 120610Z 01004KT M06/M11 A3026 RMK A01 T10561110  RH  066%=      5-min Rain = 0
KFL1 120611Z 02005KT M06/M11 A3026 RMK A01 T10571109  RH  067%=      5-min Rain = 0
KFL1 120612Z 02006KT M06/M11 A3026 RMK A01 T10591109  RH  067%=      5-min Rain = 0
KFL1 120613Z 01007KT M06/M11 A3026 RMK A01 T10611111  RH  068%=      5-min Rain = 0
KFL1 120614Z 02006KT M06/M11 A3026 RMK A01 T10621111  RH  069%=      5-min Rain = 0
KFL1 120615Z 02006KT M06/M11 A3026 RMK A01 T10631110  RH  069%=      5-min Rain = 0
KFL1 120616Z 01006KT M06/M11 A3026 RMK A01 T10641111  RH  070%=      5-min Rain = 0
KFL1 120617Z 03004KT M07/M11 A3026 RMK A01 T10681114  RH  070%=      5-min Rain = 0
KFL1 120618Z 01005KT M07/M11 A3026 RMK A01 T10681112  RH  071%=      5-min Rain = 0
KFL1 120619Z 02004KT M07/M11 A3026 RMK A01 T10681113  RH  070%=      5-min Rain = 0
KFL1 120620Z 02003KT M07/M11 A3026 RMK A01 T10691114  RH  071%=      5-min Rain = 0
KFL1 120621Z 02003KT M07/M12 A3025 RMK A01 T10721116  RH  071%=      5-min Rain = 0
KFL1 120622Z 01005KT M07/M12 A3025 RMK A01 T10731117  RH  071%=      5-min Rain = 0
KFL1 120623Z 03003KT M07/M12 A3025 RMK A01 T10741116  RH  072%=      5-min Rain = 0
KFL1 120624Z 06004KT M07/M11 A3025 RMK A01 T10731113  RH  073%=      5-min Rain = 0
KFL1 120625Z 06004KT M07/M11 A3026 RMK A01 T10731112  RH  074%=      5-min Rain = 0
KFL1 120626Z 06004KT M07/M11 A3026 RMK A01 T10741113  RH  074%=      5-min Rain = 0
KFL1 120627Z 06005KT M07/M11 A3026 RMK A01 T10741112  RH  074%=      5-min Rain = 0
KFL1 120628Z 06006KT M07/M11 A3026 RMK A01 T10731111  RH  074%=      5-min Rain = 0
KFL1 120629Z 04006KT M07/M11 A3026 RMK A01 T10731111  RH  074%=      5-min Rain = 0
KFL1 120630Z 04007KT M07/M11 A3026 RMK A01 T10741112  RH  074%=      5-min Rain = 0
KFL1 120631Z 05007KT M07/M11 A3026 RMK A01 T10711110  RH  074%=      5-min Rain = 0
KFL1 120632Z 05007KT M07/M11 A3026 RMK A01 T10701109  RH  074%=      5-min Rain = 0
KFL1 120633Z 05008KT M07/M11 A3026 RMK A01 T10681108  RH  073%=      5-min Rain = 0
KFL1 120634Z 04007KT M07/M11 A3026 RMK A01 T10671108  RH  073%=      5-min Rain = 0
KFL1 120635Z 04008KT M07/M11 A3026 RMK A01 T10651108  RH  071%=      5-min Rain = 0
KFL1 120636Z 04006KT M06/M11 A3026 RMK A01 T10631108  RH  071%=      5-min Rain = 0
KFL1 120637Z 05006KT M06/M11 A3026 RMK A01 T10601107  RH  069%=      5-min Rain = 0
KFL1 120638Z 06006KT M06/M11 A3025 RMK A01 T10591108  RH  068%=      5-min Rain = 0
KFL1 120639Z 05006KT M06/M11 A3025 RMK A01 T10551107  RH  067%=      5-min Rain = 0
KFL1 120640Z 04006KT M05/M11 A3026 RMK A01 T10531107  RH  066%=      5-min Rain = 0
KFL1 120641Z 04006KT M05/M11 A3026 RMK A01 T10531107  RH  066%=      5-min Rain = 0
KFL1 120642Z 04006KT M05/M11 A3026 RMK A01 T10531108  RH  066%=      5-min Rain = 0
KFL1 120643Z 04007KT M05/M11 A3026 RMK A01 T10511107  RH  065%=      5-min Rain = 0
KFL1 120644Z 06006KT M05/M11 A3026 RMK A01 T10501107  RH  064%=      5-min Rain = 0
KFL1 120645Z 05006KT M05/M11 A3026 RMK A01 T10491107  RH  064%=      5-min Rain = 0
KFL1 120646Z 04006KT M05/M11 A3026 RMK A01 T10481107  RH  064%=      5-min Rain = 0
KFL1 120647Z 03007KT M05/M11 A3026 RMK A01 T10491107  RH  064%=      5-min Rain = 0
KFL1 120648Z 04007KT M05/M11 A3026 RMK A01 T10481107  RH  064%=      5-min Rain = 0
KFL1 120649Z 04006KT M05/M11 A3026 RMK A01 T10461105  RH  064%=      5-min Rain = 0
KFL1 120650Z 03006KT M05/M11 A3026 RMK A01 T10461105  RH  063%=      5-min Rain = 0
KFL1 120651Z 04006KT M05/M11 A3026 RMK A01 T10461107  RH  062%=      5-min Rain = 0
KFL1 120652Z 05006KT M05/M11 A3026 RMK A01 T10491109  RH  063%=      5-min Rain = 0
KFL1 120653Z 04007KT M05/M11 A3026 RMK A01 T10481106  RH  064%=      5-min Rain = 0
KFL1 120654Z 04006KT M05/M10 A3026 RMK A01 T10471104  RH  064%=      5-min Rain = 0
KFL1 120655Z 04006KT M05/M11 A3026 RMK A01 T10461105  RH  063%=      5-min Rain = 0
KFL1 120656Z 03006KT M05/M11 A3026 RMK A01 T10451105  RH  063%=      5-min Rain = 0
KFL1 120657Z 03006KT M05/M11 A3026 RMK A01 T10471108  RH  063%=      5-min Rain = 0
KFL1 120658Z 04007KT M05/M11 A3026 RMK A01 T10541113  RH  063%=      5-min Rain = 0
KFL1 120659Z 04007KT M06/M11 A3026 RMK A01 T10571111  RH  066%=      5-min Rain = 0
KFL1 120700Z 04006KT M06/M11 A3026 RMK A01 T10561108  RH  066%=      5-min Rain = 0
KFL1 120701Z 04006KT M05/M11 A3026 RMK A01 T10541106  RH  067%=      5-min Rain = 0
KFL1 120702Z 03005KT M05/M11 A3026 RMK A01 T10521105  RH  067%=      5-min Rain = 0
KFL1 120703Z 04007KT M05/M11 A3026 RMK A01 T10541109  RH  065%=      5-min Rain = 0
KFL1 120704Z 05006KT M06/M11 A3025 RMK A01 T10571110  RH  066%=      5-min Rain = 0
KFL1 120705Z 04006KT M06/M11 A3025 RMK A01 T10561107  RH  067%=      5-min Rain = 0
KFL1 120706Z 03007KT M05/M11 A3025 RMK A01 T10531105  RH  067%=      5-min Rain = 0
KFL1 120707Z 04008KT M05/M11 A3025 RMK A01 T10521105  RH  066%=      5-min Rain = 0
KFL1 120708Z 04007KT M05/M11 A3025 RMK A01 T10531107  RH  066%=      5-min Rain = 0
KFL1 120709Z 04008KT M05/M11 A3025 RMK A01 T10541107  RH  066%=      5-min Rain = 0
KFL1 120710Z 05008KT M06/M11 A3025 RMK A01 T10561109  RH  066%=      5-min Rain = 0
KFL1 120711Z 05009KT M06/M11 A3025 RMK A01 T10561108  RH  067%=      5-min Rain = 0
KFL1 120712Z 04009KT M06/M11 A3025 RMK A01 T10551107  RH  067%=      5-min Rain = 0
KFL1 120713Z 04008KT M06/M11 A3025 RMK A01 T10561108  RH  067%=      5-min Rain = 0
KFL1 120714Z 04008KT M06/M11 A3025 RMK A01 T10571109  RH  067%=      5-min Rain = 0
KFL1 120715Z 04008KT M06/M11 A3024 RMK A01 T10581109  RH  067%=      5-min Rain = 0
KFL1 120716Z 04008KT M06/M11 A3024 RMK A01 T10581109  RH  067%=      5-min Rain = 0
KFL1 120717Z 04008KT M06/M11 A3025 RMK A01 T10571108  RH  068%=      5-min Rain = 0
KFL1 120718Z 05009KT M06/M11 A3025 RMK A01 T10571106  RH  068%=      5-min Rain = 0
KFL1 120719Z 05009KT M06/M11 A3025 RMK A01 T10581108  RH  068%=      5-min Rain = 0
KFL1 120720Z 04007KT M06/M11 A3025 RMK A01 T10581108  RH  068%=      5-min Rain = 0
KFL1 120721Z 05007KT M06/M11 A3025 RMK A01 T10571106  RH  068%=      5-min Rain = 0
KFL1 120722Z 05005KT M06/M11 A3025 RMK A01 T10551105  RH  068%=      5-min Rain = 0
KFL1 120723Z 05004KT M05/M10 A3025 RMK A01 T10541104  RH  068%=      5-min Rain = 0
KFL1 120724Z 06004KT M06/M11 A3025 RMK A01 T10551105  RH  068%=      5-min Rain = 0
KFL1 120725Z 05003KT M06/M11 A3025 RMK A01 T10551105  RH  068%=      5-min Rain = 0
KFL1 120726Z 04004KT M06/M11 A3025 RMK A01 T10551105  RH  068%=      5-min Rain = 0
KFL1 120727Z 05005KT M06/M11 A3025 RMK A01 T10551105  RH  068%=      5-min Rain = 0
KFL1 120728Z 05005KT M06/M11 A3025 RMK A01 T10561106  RH  068%=      5-min Rain = 0
KFL1 120729Z 06004KT M06/M11 A3025 RMK A01 T10571105  RH  069%=      5-min Rain = 0
KFL1 120730Z 05005KT M06/M10 A3025 RMK A01 T10571103  RH  070%=      5-min Rain = 0
KFL1 120731Z 06006KT M06/M10 A3025 RMK A01 T10551101  RH  070%=      5-min Rain = 0
KFL1 120732Z 06004KT M05/M10 A3025 RMK A01 T10541101  RH  070%=      5-min Rain = 0
KFL1 120733Z 04004KT M05/M10 A3025 RMK A01 T10521100  RH  069%=      5-min Rain = 0
KFL1 120734Z 04006KT M05/M10 A3025 RMK A01 T10531103  RH  068%=      5-min Rain = 0
KFL1 120735Z 06005KT M06/M11 A3025 RMK A01 T10561106  RH  068%=      5-min Rain = 0
KFL1 120736Z 04004KT M06/M10 A3025 RMK A01 T10551102  RH  069%=      5-min Rain = 0
KFL1 120737Z 06005KT M05/M10 A3025 RMK A01 T10531101  RH  069%=      5-min Rain = 0
KFL1 120738Z 04004KT M05/M10 A3025 RMK A01 T10531102  RH  068%=      5-min Rain = 0
KFL1 120739Z 07005KT M05/M10 A3024 RMK A01 T10521101  RH  068%=      5-min Rain = 0
KFL1 120740Z 07004KT M05/M10 A3024 RMK A01 T10541104  RH  068%=      5-min Rain = 0
KFL1 120741Z 31002KT M06/M10 A3025 RMK A01 T10551104  RH  068%=      5-min Rain = 0
KFL1 120742Z 36002KT M06/M11 A3025 RMK A01 T10601110  RH  068%=      5-min Rain = 0
KFL1 120743Z 03002KT M06/M11 A3025 RMK A01 T10621112  RH  068%=      5-min Rain = 0
KFL1 120744Z 06003KT M07/M12 A3025 RMK A01 T10671116  RH  068%=      5-min Rain = 0
KFL1 120745Z 07004KT M07/M11 A3024 RMK A01 T10691114  RH  070%=      5-min Rain = 0
KFL1 120746Z 05004KT M07/M11 A3024 RMK A01 T10691110  RH  073%=      5-min Rain = 0
KFL1 120747Z 05004KT M07/M11 A3024 RMK A01 T10691112  RH  072%=      5-min Rain = 0
KFL1 120748Z 06004KT M07/M11 A3024 RMK A01 T10691109  RH  073%=      5-min Rain = 0
KFL1 120749Z 06005KT M07/M10 A3024 RMK A01 T10671103  RH  075%=      5-min Rain = 0
KFL1 120750Z 05005KT M06/M10 A3024 RMK A01 T10621098  RH  076%=      5-min Rain = 0
KFL1 120751Z 05005KT M06/M10 A3024 RMK A01 T10581096  RH  075%=      5-min Rain = 0
KFL1 120752Z 05005KT M06/M10 A3024 RMK A01 T10591104  RH  070%=      5-min Rain = 0
KFL1 120753Z 06005KT M06/M11 A3024 RMK A01 T10631108  RH  071%=      5-min Rain = 0
KFL1 120754Z 05004KT M06/M10 A3024 RMK A01 T10631104  RH  073%=      5-min Rain = 0
KFL1 120755Z 03003KT M06/M11 A3024 RMK A01 T10641105  RH  072%=      5-min Rain = 0
KFL1 120756Z 04004KT M07/M12 A3024 RMK A01 T10701117  RH  069%=      5-min Rain = 0
KFL1 120757Z 06004KT M08/M12 A3024 RMK A01 T10771120  RH  071%=      5-min Rain = 0
KFL1 120758Z 06004KT M07/M11 A3024 RMK A01 T10741109  RH  076%=      5-min Rain = 0
KFL1 120759Z 05003KT M07/M10 A3024 RMK A01 T10701102  RH  078%=      5-min Rain = 0
KFL1 120800Z 03002KT M07/M10 A3024 RMK A01 T10651097  RH  078%=      5-min Rain = 0
KFL1 120801Z 05003KT M07/M10 A3025 RMK A01 T10651103  RH  075%=      5-min Rain = 0
KFL1 120802Z 05002KT M07/M11 A3025 RMK A01 T10711114  RH  071%=      5-min Rain = 0
KFL1 120803Z 05002KT M07/M12 A3025 RMK A01 T10741117  RH  072%=      5-min Rain = 0
KFL1 120804Z 06003KT M08/M11 A3025 RMK A01 T10751114  RH  073%=      5-min Rain = 0
KFL1 120805Z 06004KT M08/M11 A3025 RMK A01 T10751111  RH  075%=      5-min Rain = 0
KFL1 120806Z 05003KT M07/M11 A3025 RMK A01 T10741109  RH  076%=      5-min Rain = 0
KFL1 120807Z 05003KT M07/M11 A3025 RMK A01 T10731107  RH  077%=      5-min Rain = 0
KFL1 120808Z 05003KT M07/M10 A3025 RMK A01 T10681100  RH  078%=      5-min Rain = 0
KFL1 120809Z 06003KT M06/M10 A3025 RMK A01 T10631095  RH  078%=      5-min Rain = 0
KFL1 120810Z 06004KT M06/M09 A3025 RMK A01 T10601094  RH  077%=      5-min Rain = 0
KFL1 120811Z 07004KT M06/M09 A3025 RMK A01 T10581094  RH  076%=      5-min Rain = 0
KFL1 120812Z 05004KT M06/M09 A3025 RMK A01 T10561094  RH  075%=      5-min Rain = 0
KFL1 120813Z 03003KT M06/M10 A3025 RMK A01 T10561095  RH  074%=      5-min Rain = 0
KFL1 120814Z 05003KT M05/M10 A3025 RMK A01 T10541095  RH  073%=      5-min Rain = 0
KFL1 120815Z 06003KT M06/M10 A3025 RMK A01 T10551097  RH  072%=      5-min Rain = 0
KFL1 120816Z 08003KT M06/M10 A3025 RMK A01 T10551098  RH  072%=      5-min Rain = 0
KFL1 120817Z 08002KT M06/M10 A3025 RMK A01 T10561097  RH  073%=      5-min Rain = 0
KFL1 120818Z 08003KT M05/M09 A3025 RMK A01 T10541093  RH  074%=      5-min Rain = 0
KFL1 120819Z 04002KT M06/M10 A3025 RMK A01 T10551097  RH  072%=      5-min Rain = 0
KFL1 120820Z 02002KT M07/M12 A3025 RMK A01 T10671118  RH  067%=      5-min Rain = 0
KFL1 120821Z 03002KT M08/M13 A3025 RMK A01 T10801131  RH  067%=      5-min Rain = 0
KFL1 120822Z 04003KT M08/M12 A3025 RMK A01 T10841124  RH  073%=      5-min Rain = 0
KFL1 120823Z 05003KT M08/M12 A3025 RMK A01 T10831116  RH  077%=      5-min Rain = 0
KFL1 120824Z 06003KT M08/M11 A3025 RMK A01 T10821111  RH  080%=      5-min Rain = 0
KFL1 120825Z 06003KT M08/M10 A3025 RMK A01 T10771104  RH  081%=      5-min Rain = 0
KFL1 120826Z 06003KT M07/M10 A3025 RMK A01 T10741101  RH  081%=      5-min Rain = 0
KFL1 120827Z 05003KT M07/M10 A3025 RMK A01 T10701098  RH  081%=      5-min Rain = 0
KFL1 120828Z 01004KT M08/M11 A3025 RMK A01 T10751112  RH  074%=      5-min Rain = 0
KFL1 120829Z 01004KT M08/M12 A3025 RMK A01 T10831121  RH  074%=      5-min Rain = 0
KFL1 120830Z 02004KT M08/M11 A3025 RMK A01 T10841114  RH  079%=      5-min Rain = 0
KFL1 120831Z 04004KT M08/M11 A3025 RMK A01 T10791107  RH  080%=      5-min Rain = 0
KFL1 120832Z 05004KT M08/M10 A3025 RMK A01 T10751100  RH  082%=      5-min Rain = 0
KFL1 120833Z 05004KT M07/M09 A3025 RMK A01 T10681094  RH  082%=      5-min Rain = 0
KFL1 120834Z 05004KT M06/M09 A3025 RMK A01 T10641092  RH  080%=      5-min Rain = 0
KFL1 120835Z 05004KT M06/M09 A3025 RMK A01 T10591090  RH  079%=      5-min Rain = 0
KFL1 120836Z 05003KT M06/M10 A3025 RMK A01 T10621102  RH  074%=      5-min Rain = 0
KFL1 120837Z 04004KT M07/M12 A3025 RMK A01 T10741119  RH  070%=      5-min Rain = 0
KFL1 120838Z 03003KT M08/M12 A3025 RMK A01 T10821124  RH  072%=      5-min Rain = 0
KFL1 120839Z 03003KT M09/M12 A3025 RMK A01 T10861122  RH  075%=      5-min Rain = 0
KFL1 120840Z 03004KT M09/M12 A3026 RMK A01 T10851115  RH  079%=      5-min Rain = 0
KFL1 120841Z 03004KT M09/M11 A3026 RMK A01 T10851113  RH  080%=      5-min Rain = 0
KFL1 120842Z 04004KT M09/M11 A3026 RMK A01 T10851113  RH  080%=      5-min Rain = 0
KFL1 120843Z 05004KT M08/M11 A3026 RMK A01 T10811108  RH  081%=      5-min Rain = 0
KFL1 120844Z 05003KT M08/M10 A3026 RMK A01 T10771101  RH  083%=      5-min Rain = 0
KFL1 120845Z 05003KT M07/M10 A3026 RMK A01 T10721097  RH  083%=      5-min Rain = 0
KFL1 120846Z 04003KT M07/M10 A3026 RMK A01 T10711104  RH  077%=      5-min Rain = 0
KFL1 120847Z 04003KT M08/M11 A3026 RMK A01 T10761112  RH  075%=      5-min Rain = 0
KFL1 120848Z 04003KT M08/M12 A3026 RMK A01 T10821119  RH  074%=      5-min Rain = 0
KFL1 120849Z 05003KT M09/M12 A3026 RMK A01 T10871122  RH  076%=      5-min Rain = 0
KFL1 120850Z 04003KT M09/M12 A3026 RMK A01 T10881121  RH  077%=      5-min Rain = 0
KFL1 120851Z 04003KT M09/M12 A3026 RMK A01 T10881117  RH  080%=      5-min Rain = 0
KFL1 120852Z 05003KT M09/M12 A3026 RMK A01 T10871115  RH  080%=      5-min Rain = 0
KFL1 120853Z 05002KT M09/M11 A3026 RMK A01 T10861113  RH  080%=      5-min Rain = 0
KFL1 120854Z 05002KT M08/M11 A3026 RMK A01 T10841113  RH  079%=      5-min Rain = 0
KFL1 120855Z 05003KT M09/M12 A3026 RMK A01 T10861116  RH  079%=      5-min Rain = 0
KFL1 120856Z 05003KT M09/M12 A3026 RMK A01 T10861115  RH  080%=      5-min Rain = 0
KFL1 120857Z 05003KT M08/M11 A3026 RMK A01 T10831108  RH  082%=      5-min Rain = 0
KFL1 120858Z 04003KT M08/M10 A3026 RMK A01 T10761098  RH  084%=      5-min Rain = 0
KFL1 120859Z 04004KT M07/M10 A3026 RMK A01 T10731104  RH  079%=      5-min Rain = 0
KFL1 120900Z 04003KT M08/M12 A3026 RMK A01 T10811117  RH  075%=      5-min Rain = 0
KFL1 120901Z 04003KT M09/M12 A3026 RMK A01 T10851122  RH  075%=      5-min Rain = 0
KFL1 120902Z 03003KT M10/M14 A3026 RMK A01 T10951135  RH  073%=      5-min Rain = 0
KFL1 120903Z 03003KT M10/M13 A3026 RMK A01 T10981129  RH  078%=      5-min Rain = 0
KFL1 120904Z 03002KT M10/M12 A3026 RMK A01 T10971124  RH  081%=      5-min Rain = 0
KFL1 120905Z 04002KT M09/M12 A3026 RMK A01 T10931116  RH  084%=      5-min Rain = 0
KFL1 120906Z 07001KT M09/M11 A3026 RMK A01 T10881110  RH  084%=      5-min Rain = 0
KFL1 120907Z 05001KT M09/M11 A3026 RMK A01 T10881111  RH  083%=      5-min Rain = 0
KFL1 120908Z 05001KT M09/M11 A3026 RMK A01 T10881114  RH  081%=      5-min Rain = 0
KFL1 120909Z 07001KT M09/M11 A3026 RMK A01 T10861110  RH  083%=      5-min Rain = 0
KFL1 120910Z 06001KT M08/M11 A3026 RMK A01 T10811106  RH  082%=      5-min Rain = 0
KFL1 120911Z 06000KT M08/M11 A3026 RMK A01 T10821110  RH  080%=      5-min Rain = 0
KFL1 120912Z 05001KT M08/M11 A3026 RMK A01 T10801109  RH  080%=      5-min Rain = 0
KFL1 120913Z 07001KT M07/M10 A3026 RMK A01 T10731101  RH  081%=      5-min Rain = 0
KFL1 120914Z 05001KT M07/M10 A3026 RMK A01 T10701103  RH  077%=      5-min Rain = 0
KFL1 120915Z 05002KT M08/M12 A3026 RMK A01 T10761116  RH  073%=      5-min Rain = 0
KFL1 120916Z 03002KT M09/M13 A3026 RMK A01 T10851127  RH  071%=      5-min Rain = 0
KFL1 120917Z 05001KT M09/M13 A3026 RMK A01 T10901129  RH  073%=      5-min Rain = 0
KFL1 120918Z 02002KT M09/M13 A3026 RMK A01 T10921127  RH  076%=      5-min Rain = 0
KFL1 120919Z 02001KT M10/M13 A3026 RMK A01 T10951128  RH  077%=      5-min Rain = 0
KFL1 120920Z 01000KT M09/M12 A3026 RMK A01 T10941124  RH  079%=      5-min Rain = 0
KFL1 120921Z 29000KT M10/M13 A3026 RMK A01 T10971129  RH  078%=      5-min Rain = 0
KFL1 120922Z 33001KT M10/M13 A3026 RMK A01 T10981129  RH  078%=      5-min Rain = 0
KFL1 120923Z 31001KT M10/M13 A3026 RMK A01 T11041134  RH  078%=      5-min Rain = 0
KFL1 120924Z 26001KT M11/M13 A3026 RMK A01 T11061134  RH  080%=      5-min Rain = 0
KFL1 120925Z 28001KT M10/M12 A3026 RMK A01 T11021123  RH  084%=      5-min Rain = 0
KFL1 120926Z 27001KT M10/M13 A3026 RMK A01 T11011125  RH  083%=      5-min Rain = 0
KFL1 120927Z 26002KT M10/M13 A3026 RMK A01 T11021126  RH  083%=      5-min Rain = 0
KFL1 120928Z 25003KT M10/M12 A3026 RMK A01 T10961115  RH  086%=      5-min Rain = 0
KFL1 120929Z 25003KT M09/M11 A3026 RMK A01 T10871106  RH  087%=      5-min Rain = 0
KFL1 120930Z 25003KT M08/M11 A3026 RMK A01 T10831105  RH  084%=      5-min Rain = 0
KFL1 120931Z 25004KT M08/M11 A3026 RMK A01 T10821108  RH  081%=      5-min Rain = 0
KFL1 120932Z 25004KT M08/M10 A3026 RMK A01 T10771104  RH  081%=      5-min Rain = 0
KFL1 120933Z 25005KT M08/M11 A3026 RMK A01 T10781111  RH  077%=      5-min Rain = 0
KFL1 120934Z 25004KT M08/M11 A3026 RMK A01 T10791113  RH  076%=      5-min Rain = 0
KFL1 120935Z 26004KT M08/M11 A3026 RMK A01 T10791114  RH  076%=      5-min Rain = 0
KFL1 120936Z 26005KT M08/M12 A3026 RMK A01 T10801116  RH  076%=      5-min Rain = 0
KFL1 120937Z 26005KT M08/M12 A3026 RMK A01 T10811116  RH  076%=      5-min Rain = 0
KFL1 120938Z 26005KT M08/M12 A3026 RMK A01 T10821116  RH  077%=      5-min Rain = 0
KFL1 120939Z 26005KT M08/M12 A3026 RMK A01 T10841117  RH  077%=      5-min Rain = 0
KFL1 120940Z 26005KT M09/M12 A3026 RMK A01 T10851119  RH  076%=      5-min Rain = 0
KFL1 120941Z 26005KT M09/M12 A3026 RMK A01 T10861120  RH  076%=      5-min Rain = 0
KFL1 120942Z 26005KT M09/M12 A3026 RMK A01 T10881119  RH  078%=      5-min Rain = 0
KFL1 120943Z 27006KT M09/M11 A3026 RMK A01 T10861114  RH  080%=      5-min Rain = 0
KFL1 120944Z 26007KT M08/M10 A3026 RMK A01 T10761099  RH  083%=      5-min Rain = 0
KFL1 120945Z 26006KT M07/M09 A3026 RMK A01 T10671092  RH  083%=      5-min Rain = 0
KFL1 120946Z 26007KT M06/M09 A3026 RMK A01 T10611090  RH  080%=      5-min Rain = 0
KFL1 120947Z 26007KT M06/M09 A3026 RMK A01 T10581092  RH  077%=      5-min Rain = 0
KFL1 120948Z 27006KT M06/M09 A3026 RMK A01 T10561093  RH  075%=      5-min Rain = 0
KFL1 120949Z 27006KT M05/M10 A3026 RMK A01 T10541095  RH  073%=      5-min Rain = 0
KFL1 120950Z 27007KT M05/M10 A3026 RMK A01 T10541097  RH  072%=      5-min Rain = 0
KFL1 120951Z 27006KT M06/M10 A3026 RMK A01 T10551097  RH  072%=      5-min Rain = 0
KFL1 120952Z 27006KT M06/M10 A3026 RMK A01 T10551098  RH  072%=      5-min Rain = 0
KFL1 120953Z 27007KT M06/M10 A3026 RMK A01 T10571100  RH  072%=      5-min Rain = 0
KFL1 120954Z 27006KT M06/M10 A3026 RMK A01 T10561098  RH  073%=      5-min Rain = 0
KFL1 120955Z 27006KT M06/M10 A3025 RMK A01 T10551097  RH  073%=      5-min Rain = 0
KFL1 120956Z 27005KT M06/M10 A3025 RMK A01 T10561097  RH  073%=      5-min Rain = 0
KFL1 120957Z 27006KT M05/M10 A3025 RMK A01 T10541095  RH  073%=      5-min Rain = 0
KFL1 120958Z 27006KT M05/M09 A3025 RMK A01 T10541094  RH  073%=      5-min Rain = 0
KFL1 120959Z 27006KT M05/M09 A3025 RMK A01 T10541094  RH  073%=      5-min Rain = 0
KFL1 121000Z 27006KT M05/M10 A3025 RMK A01 T10541096  RH  073%=      5-min Rain = 0
KFL1 121001Z 27006KT M06/M10 A3025 RMK A01 T10561096  RH  073%=      5-min Rain = 0
KFL1 121002Z 27006KT M06/M10 A3025 RMK A01 T10561095  RH  074%=      5-min Rain = 0
KFL1 121003Z 28005KT M06/M09 A3025 RMK A01 T10551093  RH  075%=      5-min Rain = 0
KFL1 121004Z 28006KT M05/M09 A3025 RMK A01 T10541093  RH  074%=      5-min Rain = 0
KFL1 121005Z 28005KT M05/M09 A3025 RMK A01 T10541093  RH  074%=      5-min Rain = 0
KFL1 121006Z 29005KT M06/M10 A3025 RMK A01 T10561097  RH  073%=      5-min Rain = 0
KFL1 121007Z 29004KT M06/M10 A3025 RMK A01 T10601100  RH  073%=      5-min Rain = 0
KFL1 121008Z 30004KT M06/M10 A3025 RMK A01 T10601098  RH  074%=      5-min Rain = 0
KFL1 121009Z 30004KT M06/M10 A3025 RMK A01 T10611098  RH  075%=      5-min Rain = 0
KFL1 121010Z 30005KT M06/M10 A3025 RMK A01 T10611096  RH  076%=      5-min Rain = 0
KFL1 121011Z 30005KT M06/M09 A3025 RMK A01 T10601094  RH  077%=      5-min Rain = 0
KFL1 121012Z 30005KT M06/M09 A3025 RMK A01 T10601093  RH  078%=      5-min Rain = 0
KFL1 121013Z 30005KT M06/M09 A3025 RMK A01 T10611093  RH  078%=      5-min Rain = 0
KFL1 121014Z 30005KT M06/M09 A3025 RMK A01 T10591090  RH  079%=      5-min Rain = 0
KFL1 121015Z 30006KT M06/M09 A3025 RMK A01 T10571087  RH  080%=      5-min Rain = 0
KFL1 121016Z 30006KT M06/M09 A3025 RMK A01 T10581088  RH  079%=      5-min Rain = 0
KFL1 121017Z 30006KT M06/M09 A3025 RMK A01 T10581088  RH  080%=      5-min Rain = 0
KFL1 121018Z 30006KT M06/M09 A3025 RMK A01 T10591089  RH  079%=      5-min Rain = 0
KFL1 121019Z 31006KT M06/M09 A3025 RMK A01 T10571088  RH  079%=      5-min Rain = 0
KFL1 121020Z 30006KT M06/M09 A3025 RMK A01 T10591090  RH  079%=      5-min Rain = 0
KFL1 121021Z 30005KT M06/M09 A3025 RMK A01 T10601088  RH  081%=      5-min Rain = 0
KFL1 121022Z 30006KT M06/M09 A3025 RMK A01 T10601085  RH  083%=      5-min Rain = 0
KFL1 121023Z 30005KT M06/M09 A3025 RMK A01 T10591085  RH  082%=      5-min Rain = 0
KFL1 121024Z 30005KT M06/M09 A3025 RMK A01 T10581087  RH  080%=      5-min Rain = 0
KFL1 121025Z 30005KT M06/M09 A3025 RMK A01 T10611092  RH  079%=      5-min Rain = 0
KFL1 121026Z 29004KT M06/M09 A3025 RMK A01 T10631092  RH  080%=      5-min Rain = 0
KFL1 121027Z 29004KT M06/M09 A3025 RMK A01 T10631091  RH  081%=      5-min Rain = 0
KFL1 121028Z 28004KT M06/M09 A3025 RMK A01 T10631090  RH  081%=      5-min Rain = 0
KFL1 121029Z 28004KT M06/M09 A3025 RMK A01 T10641090  RH  082%=      5-min Rain = 0
KFL1 121030Z 27005KT M06/M09 A3025 RMK A01 T10641087  RH  083%=      5-min Rain = 0
KFL1 121031Z 27004KT M06/M09 A3025 RMK A01 T10631086  RH  084%=      5-min Rain = 0
KFL1 121032Z 27004KT M06/M08 A3025 RMK A01 T10611083  RH  084%=      5-min Rain = 0
KFL1 121033Z 27005KT M06/M08 A3025 RMK A01 T10611084  RH  083%=      5-min Rain = 0
KFL1 121034Z 27005KT M06/M08 A3024 RMK A01 T10611084  RH  084%=      5-min Rain = 0
KFL1 121035Z 27005KT M06/M08 A3024 RMK A01 T10601083  RH  084%=      5-min Rain = 0
KFL1 121036Z 27005KT M06/M08 A3025 RMK A01 T10601084  RH  083%=      5-min Rain = 0
KFL1 121037Z 28005KT M06/M08 A3025 RMK A01 T10591083  RH  084%=      5-min Rain = 0
KFL1 121038Z 28005KT M06/M08 A3025 RMK A01 T10581081  RH  084%=      5-min Rain = 0
KFL1 121039Z 28006KT M06/M08 A3025 RMK A01 T10551077  RH  085%=      5-min Rain = 0
KFL1 121040Z 28006KT M05/M07 A3025 RMK A01 T10511073  RH  085%=      5-min Rain = 0
KFL1 121041Z 28006KT M05/M07 A3025 RMK A01 T10481072  RH  084%=      5-min Rain = 0
KFL1 121042Z 28006KT M05/M07 A3025 RMK A01 T10461072  RH  082%=      5-min Rain = 0
KFL1 121043Z 29007KT M05/M07 A3025 RMK A01 T10451072  RH  082%=      5-min Rain = 0
KFL1 121044Z 29007KT M04/M07 A3025 RMK A01 T10431071  RH  081%=      5-min Rain = 0
KFL1 121045Z 29007KT M04/M07 A3025 RMK A01 T10421070  RH  081%=      5-min Rain = 0
KFL1 121046Z 29006KT M04/M07 A3025 RMK A01 T10411070  RH  080%=      5-min Rain = 0
KFL1 121047Z 29006KT M04/M07 A3025 RMK A01 T10401071  RH  079%=      5-min Rain = 0
KFL1 121048Z 29006KT M04/M07 A3025 RMK A01 T10411072  RH  078%=      5-min Rain = 0
KFL1 121049Z 29006KT M04/M07 A3025 RMK A01 T10391071  RH  079%=      5-min Rain = 0
KFL1 121050Z 29006KT M04/M07 A3025 RMK A01 T10401071  RH  079%=      5-min Rain = 0
KFL1 121051Z 29006KT M04/M07 A3025 RMK A01 T10401071  RH  079%=      5-min Rain = 0
KFL1 121052Z 29006KT M04/M07 A3025 RMK A01 T10391071  RH  079%=      5-min Rain = 0
KFL1 121053Z 29006KT M04/M07 A3025 RMK A01 T10401071  RH  079%=      5-min Rain = 0
KFL1 121054Z 29006KT M04/M07 A3025 RMK A01 T10411072  RH  079%=      5-min Rain = 0
KFL1 121055Z 29006KT M04/M07 A3025 RMK A01 T10411072  RH  079%=      5-min Rain = 0
KFL1 121056Z 29006KT M04/M07 A3025 RMK A01 T10421072  RH  079%=      5-min Rain = 0
KFL1 121057Z 29006KT M04/M07 A3025 RMK A01 T10431073  RH  079%=      5-min Rain = 0
KFL1 121058Z 29006KT M04/M07 A3024 RMK A01 T10431073  RH  080%=      5-min Rain = 0
KFL1 121059Z 29006KT M04/M07 A3024 RMK A01 T10431073  RH  080%=      5-min Rain = 0
KFL1 121100Z 29007KT M04/M07 A3024 RMK A01 T10431072  RH  080%=      5-min Rain = 0
KFL1 121101Z 29007KT M04/M07 A3025 RMK A01 T10431072  RH  080%=      5-min Rain = 0
KFL1 121102Z 29007KT M04/M07 A3024 RMK A01 T10431073  RH  080%=      5-min Rain = 0
KFL1 121103Z 29007KT M04/M07 A3024 RMK A01 T10431073  RH  080%=      5-min Rain = 0
KFL1 121104Z 29006KT M04/M08 A3024 RMK A01 T10441075  RH  079%=      5-min Rain = 0
KFL1 121105Z 29007KT M05/M08 A3024 RMK A01 T10451075  RH  079%=      5-min Rain = 0
KFL1 121106Z 29007KT M05/M08 A3024 RMK A01 T10451075  RH  080%=      5-min Rain = 0
KFL1 121107Z 29006KT M04/M07 A3024 RMK A01 T10441074  RH  080%=      5-min Rain = 0
KFL1 121108Z 29006KT M04/M07 A3024 RMK A01 T10441074  RH  080%=      5-min Rain = 0
KFL1 121109Z 29006KT M04/M07 A3024 RMK A01 T10431073  RH  080%=      5-min Rain = 0
KFL1 121110Z 29007KT M04/M07 A3024 RMK A01 T10441073  RH  080%=      5-min Rain = 0
KFL1 121111Z 29006KT M04/M07 A3024 RMK A01 T10421072  RH  080%=      5-min Rain = 0
KFL1 121112Z 29006KT M04/M07 A3024 RMK A01 T10431073  RH  079%=      5-min Rain = 0
KFL1 121113Z 29006KT M04/M07 A3024 RMK A01 T10441074  RH  080%=      5-min Rain = 0
KFL1 121114Z 29006KT M04/M07 A3025 RMK A01 T10431073  RH  080%=      5-min Rain = 0
KFL1 121115Z 29006KT M04/M07 A3025 RMK A01 T10431073  RH  079%=      5-min Rain = 0
KFL1 121116Z 29006KT M04/M08 A3025 RMK A01 T10431075  RH  079%=      5-min Rain = 0
KFL1 121117Z 29006KT M04/M08 A3025 RMK A01 T10431075  RH  079%=      5-min Rain = 0
KFL1 121118Z 29006KT M04/M07 A3024 RMK A01 T10431074  RH  079%=      5-min Rain = 0
KFL1 121119Z 29006KT M04/M07 A3024 RMK A01 T10431073  RH  079%=      5-min Rain = 0
KFL1 121120Z 29007KT M04/M07 A3024 RMK A01 T10421073  RH  079%=      5-min Rain = 0
KFL1 121121Z 28007KT M04/M08 A3024 RMK A01 T10431075  RH  078%=      5-min Rain = 0
KFL1 121122Z 28006KT M04/M08 A3024 RMK A01 T10431076  RH  078%=      5-min Rain = 0
KFL1 121123Z 28007KT M04/M07 A3024 RMK A01 T10421073  RH  079%=      5-min Rain = 0
KFL1 121124Z 28007KT M04/M07 A3024 RMK A01 T10401071  RH  079%=      5-min Rain = 0
KFL1 121125Z 28007KT M04/M07 A3024 RMK A01 T10381070  RH  078%=      5-min Rain = 0
KFL1 121126Z 28007KT M04/M07 A3024 RMK A01 T10371071  RH  078%=      5-min Rain = 0
KFL1 121127Z 28007KT M04/M07 A3024 RMK A01 T10351070  RH  077%=      5-min Rain = 0
KFL1 121128Z 28007KT M04/M07 A3024 RMK A01 T10371072  RH  077%=      5-min Rain = 0
KFL1 121129Z 29007KT M04/M08 A3024 RMK A01 T10381075  RH  076%=      5-min Rain = 0
KFL1 121130Z 29007KT M04/M08 A3024 RMK A01 T10401077  RH  076%=      5-min Rain = 0
KFL1 121131Z 29007KT M04/M08 A3024 RMK A01 T10411077  RH  076%=      5-min Rain = 0
KFL1 121132Z 29007KT M04/M08 A3024 RMK A01 T10421077  RH  077%=      5-min Rain = 0
KFL1 121133Z 29006KT M04/M07 A3024 RMK A01 T10401074  RH  078%=      5-min Rain = 0
KFL1 121134Z 29007KT M04/M07 A3024 RMK A01 T10411074  RH  078%=      5-min Rain = 0
KFL1 121135Z 29006KT M04/M07 A3024 RMK A01 T10411073  RH  078%=      5-min Rain = 0
KFL1 121136Z 29006KT M04/M07 A3024 RMK A01 T10401072  RH  078%=      5-min Rain = 0
KFL1 121137Z 29006KT M04/M07 A3024 RMK A01 T10391072  RH  078%=      5-min Rain = 0
KFL1 121138Z 29005KT M04/M07 A3023 RMK A01 T10391072  RH  078%=      5-min Rain = 0
KFL1 121139Z 29005KT M04/M07 A3023 RMK A01 T10391073  RH  078%=      5-min Rain = 0
KFL1 121140Z 29005KT M04/M07 A3023 RMK A01 T10401072  RH  078%=      5-min Rain = 0
KFL1 121141Z 29006KT M04/M07 A3023 RMK A01 T10401072  RH  079%=      5-min Rain = 0
KFL1 121142Z 29006KT M04/M07 A3023 RMK A01 T10391070  RH  079%=      5-min Rain = 0
KFL1 121143Z 29006KT M04/M07 A3023 RMK A01 T10401071  RH  079%=      5-min Rain = 0
KFL1 121144Z 29006KT M04/M07 A3023 RMK A01 T10381071  RH  078%=      5-min Rain = 0
KFL1 121145Z 28006KT M04/M07 A3023 RMK A01 T10381072  RH  077%=      5-min Rain = 0
KFL1 121146Z 28006KT M04/M07 A3023 RMK A01 T10391073  RH  077%=      5-min Rain = 0
KFL1 121147Z 29006KT M04/M07 A3023 RMK A01 T10401073  RH  078%=      5-min Rain = 0
KFL1 121148Z 29006KT M04/M07 A3023 RMK A01 T10401074  RH  077%=      5-min Rain = 0
KFL1 121149Z 29006KT M04/M07 A3023 RMK A01 T10391072  RH  078%=      5-min Rain = 0
KFL1 121150Z 29006KT M04/M07 A3023 RMK A01 T10401073  RH  078%=      5-min Rain = 0
KFL1 121151Z 29006KT M04/M07 A3023 RMK A01 T10401072  RH  078%=      5-min Rain = 0
KFL1 121152Z 29007KT M04/M07 A3023 RMK A01 T10391071  RH  078%=      5-min Rain = 0
KFL1 121153Z 29006KT M04/M07 A3023 RMK A01 T10391071  RH  078%=      5-min Rain = 0
KFL1 121154Z 29006KT M04/M07 A3023 RMK A01 T10401071  RH  079%=      5-min Rain = 0
KFL1 121155Z 29006KT M04/M07 A3023 RMK A01 T10391071  RH  079%=      5-min Rain = 0
KFL1 121156Z 29006KT M04/M07 A3023 RMK A01 T10391071  RH  079%=      5-min Rain = 0
KFL1 121157Z 29006KT M04/M07 A3023 RMK A01 T10411073  RH  078%=      5-min Rain = 0
KFL1 121158Z 29006KT M04/M07 A3023 RMK A01 T10411074  RH  078%=      5-min Rain = 0
KFL1 121159Z 28006KT M04/M07 A3023 RMK A01 T10401072  RH  078%=      5-min Rain = 0
KFL1 121200Z 29006KT M04/M07 A3023 RMK A01 T10411073  RH  079%=      5-min Rain = 0
KFL1 121201Z 29006KT M04/M07 A3023 RMK A01 T10411072  RH  079%=      5-min Rain = 0
KFL1 121202Z 28006KT M04/M07 A3023 RMK A01 T10391070  RH  079%=      5-min Rain = 0
KFL1 121203Z 29006KT M04/M07 A3023 RMK A01 T10401072  RH  078%=      5-min Rain = 0
KFL1 121204Z 29006KT M04/M07 A3023 RMK A01 T10401073  RH  078%=      5-min Rain = 0
KFL1 121205Z 28006KT M04/M07 A3023 RMK A01 T10401073  RH  078%=      5-min Rain = 0
KFL1 121206Z 29006KT M04/M07 A3023 RMK A01 T10411073  RH  078%=      5-min Rain = 0
KFL1 121207Z 29006KT M04/M07 A3023 RMK A01 T10401073  RH  078%=      5-min Rain = 0
KFL1 121208Z 29007KT M04/M07 A3023 RMK A01 T10401073  RH  078%=      5-min Rain = 0
KFL1 121209Z 29006KT M04/M07 A3023 RMK A01 T10401073  RH  078%=      5-min Rain = 0
KFL1 121210Z 29006KT M04/M07 A3023 RMK A01 T10401073  RH  078%=      5-min Rain = 0
KFL1 121211Z 29006KT M04/M07 A3023 RMK A01 T10401073  RH  078%=      5-min Rain = 0
KFL1 121212Z 28006KT M04/M07 A3023 RMK A01 T10411073  RH  078%=      5-min Rain = 0
KFL1 121213Z 29006KT M04/M07 A3023 RMK A01 T10391072  RH  078%=      5-min Rain = 0
KFL1 121214Z 29005KT M04/M07 A3022 RMK A01 T10391071  RH  078%=      5-min Rain = 0
KFL1 121215Z 29005KT M04/M07 A3022 RMK A01 T10381069  RH  079%=      5-min Rain = 0
KFL1 121216Z 29005KT M04/M07 A3022 RMK A01 T10381069  RH  079%=      5-min Rain = 0
KFL1 121217Z 29005KT M04/M07 A3022 RMK A01 T10391070  RH  079%=      5-min Rain = 0
KFL1 121218Z 29006KT M04/M07 A3022 RMK A01 T10381069  RH  079%=      5-min Rain = 0
KFL1 121219Z 29006KT M04/M07 A3022 RMK A01 T10371068  RH  079%=      5-min Rain = 0
KFL1 121220Z 29005KT M04/M07 A3022 RMK A01 T10361068  RH  079%=      5-min Rain = 0
KFL1 121221Z 29005KT M04/M07 A3022 RMK A01 T10361068  RH  079%=      5-min Rain = 0
KFL1 121222Z 29006KT M04/M07 A3022 RMK A01 T10371069  RH  078%=      5-min Rain = 0
KFL1 121223Z 29006KT M04/M07 A3023 RMK A01 T10371069  RH  078%=      5-min Rain = 0
KFL1 121224Z 29006KT M04/M07 A3023 RMK A01 T10371069  RH  078%=      5-min Rain = 0
KFL1 121225Z 29005KT M04/M07 A3023 RMK A01 T10361069  RH  078%=      5-min Rain = 0
KFL1 121226Z 29005KT M04/M07 A3023 RMK A01 T10361068  RH  078%=      5-min Rain = 0
KFL1 121227Z 29005KT M04/M07 A3023 RMK A01 T10361069  RH  078%=      5-min Rain = 0
KFL1 121228Z 29005KT M04/M07 A3023 RMK A01 T10361068  RH  078%=      5-min Rain = 0
KFL1 121229Z 29004KT M04/M07 A3023 RMK A01 T10371071  RH  077%=      5-min Rain = 0
KFL1 121230Z 29004KT M04/M08 A3022 RMK A01 T10391075  RH  076%=      5-min Rain = 0
KFL1 121231Z 29004KT M04/M07 A3022 RMK A01 T10401073  RH  078%=      5-min Rain = 0
KFL1 121232Z 29004KT M04/M07 A3022 RMK A01 T10391070  RH  079%=      5-min Rain = 0
KFL1 121233Z 29004KT M04/M07 A3022 RMK A01 T10401071  RH  079%=      5-min Rain = 0
KFL1 121234Z 29004KT M04/M07 A3022 RMK A01 T10411071  RH  079%=      5-min Rain = 0
KFL1 121235Z 29004KT M04/M07 A3022 RMK A01 T10411072  RH  079%=      5-min Rain = 0
KFL1 121236Z 29004KT M04/M07 A3022 RMK A01 T10411071  RH  080%=      5-min Rain = 0
KFL1 121237Z 29004KT M04/M07 A3022 RMK A01 T10411071  RH  080%=      5-min Rain = 0
KFL1 121238Z 28004KT M04/M07 A3022 RMK A01 T10401072  RH  079%=      5-min Rain = 0
KFL1 121239Z 28005KT M04/M07 A3022 RMK A01 T10431074  RH  079%=      5-min Rain = 0
KFL1 121240Z 28005KT M04/M07 A3022 RMK A01 T10421071  RH  080%=      5-min Rain = 0
KFL1 121241Z 28005KT M04/M07 A3022 RMK A01 T10411070  RH  080%=      5-min Rain = 0
KFL1 121242Z 28005KT M04/M07 A3022 RMK A01 T10411070  RH  080%=      5-min Rain = 0
KFL1 121243Z 28005KT M04/M07 A3022 RMK A01 T10381069  RH  080%=      5-min Rain = 0
KFL1 121244Z 28005KT M04/M07 A3022 RMK A01 T10381069  RH  079%=      5-min Rain = 0
KFL1 121245Z 28005KT M04/M07 A3022 RMK A01 T10381070  RH  079%=      5-min Rain = 0
KFL1 121246Z 27005KT M04/M07 A3023 RMK A01 T10381070  RH  079%=      5-min Rain = 0
KFL1 121247Z 27005KT M04/M07 A3023 RMK A01 T10371069  RH  079%=      5-min Rain = 0
KFL1 121248Z 28006KT M04/M07 A3022 RMK A01 T10361068  RH  079%=      5-min Rain = 0
KFL1 121249Z 28005KT M03/M07 A3022 RMK A01 T10341065  RH  079%=      5-min Rain = 0
KFL1 121250Z 28006KT M03/M07 A3022 RMK A01 T10331065  RH  078%=      5-min Rain = 0
KFL1 121251Z 28006KT M04/M07 A3022 RMK A01 T10351068  RH  077%=      5-min Rain = 0
KFL1 121252Z 28006KT M04/M07 A3022 RMK A01 T10351068  RH  078%=      5-min Rain = 0
KFL1 121253Z 28006KT M04/M07 A3022 RMK A01 T10351068  RH  078%=      5-min Rain = 0
KFL1 121254Z 27006KT M04/M07 A3022 RMK A01 T10361070  RH  077%=      5-min Rain = 0
KFL1 121255Z 27006KT M04/M07 A3022 RMK A01 T10351070  RH  077%=      5-min Rain = 0
KFL1 121256Z 27006KT M04/M07 A3022 RMK A01 T10351069  RH  077%=      5-min Rain = 0
KFL1 121257Z 27005KT M04/M07 A3022 RMK A01 T10361070  RH  077%=      5-min Rain = 0
KFL1 121258Z 27005KT M04/M07 A3022 RMK A01 T10351068  RH  078%=      5-min Rain = 0
KFL1 121259Z 27005KT M03/M07 A3022 RMK A01 T10341067  RH  077%=      5-min Rain = 0
KFL1 121300Z 27005KT M04/M07 A3022 RMK A01 T10351071  RH  076%=      5-min Rain = 0
KFL1 121301Z 28005KT M04/M07 A3022 RMK A01 T10381073  RH  076%=      5-min Rain = 0
KFL1 121302Z 28005KT M04/M07 A3022 RMK A01 T10391072  RH  078%=      5-min Rain = 0
KFL1 121303Z 27005KT M04/M07 A3022 RMK A01 T10371068  RH  079%=      5-min Rain = 0
KFL1 121304Z 27005KT M04/M07 A3022 RMK A01 T10361068  RH  079%=      5-min Rain = 0
KFL1 121305Z 27005KT M04/M07 A3022 RMK A01 T10351067  RH  078%=      5-min Rain = 0
KFL1 121306Z 27006KT M04/M07 A3022 RMK A01 T10351067  RH  078%=      5-min Rain = 0
KFL1 121307Z 26006KT M03/M07 A3022 RMK A01 T10341067  RH  078%=      5-min Rain = 0
KFL1 121308Z 26006KT M03/M07 A3022 RMK A01 T10341068  RH  077%=      5-min Rain = 0
KFL1 121309Z 27006KT M04/M07 A3022 RMK A01 T10361071  RH  077%=      5-min Rain = 0
KFL1 121310Z 26006KT M04/M07 A3022 RMK A01 T10371072  RH  077%=      5-min Rain = 0
KFL1 121311Z 27006KT M04/M07 A3022 RMK A01 T10381073  RH  077%=      5-min Rain = 0
KFL1 121312Z 27005KT M04/M07 A3022 RMK A01 T10391072  RH  078%=      5-min Rain = 0
KFL1 121313Z 27006KT M04/M07 A3022 RMK A01 T10361068  RH  079%=      5-min Rain = 0
KFL1 121314Z 26006KT M04/M07 A3022 RMK A01 T10361067  RH  079%=      5-min Rain = 0
KFL1 121315Z 26008KT M04/M07 A3022 RMK A01 T10361069  RH  078%=      5-min Rain = 0
KFL1 121316Z 25008KT M03/M07 A3022 RMK A01 T10331066  RH  078%=      5-min Rain = 0
KFL1 121317Z 25009KT M03/M06 A3022 RMK A01 T10301064  RH  077%=      5-min Rain = 0
KFL1 121318Z 25010KT M03/M07 A3022 RMK A01 T10291065  RH  076%=      5-min Rain = 0
KFL1 121319Z 25010KT M03/M07 A3022 RMK A01 T10301068  RH  075%=      5-min Rain = 0
KFL1 121320Z 25010KT M03/M07 A3022 RMK A01 T10291067  RH  075%=      5-min Rain = 0
KFL1 121321Z 25009KT M03/M07 A3022 RMK A01 T10291068  RH  075%=      5-min Rain = 0
KFL1 121322Z 25009KT M03/M07 A3022 RMK A01 T10281067  RH  074%=      5-min Rain = 0
KFL1 121323Z 25009KT M03/M07 A3022 RMK A01 T10291069  RH  074%=      5-min Rain = 0
KFL1 121324Z 26009KT M03/M07 A3022 RMK A01 T10291068  RH  074%=      5-min Rain = 0
KFL1 121325Z 26009KT M03/M07 A3022 RMK A01 T10301070  RH  074%=      5-min Rain = 0
KFL1 121326Z 26008KT M03/M07 A3022 RMK A01 T10311069  RH  075%=      5-min Rain = 0
KFL1 121327Z 26008KT M03/M07 A3022 RMK A01 T10311068  RH  075%=      5-min Rain = 0
KFL1 121328Z 26008KT M03/M07 A3022 RMK A01 T10311068  RH  075%=      5-min Rain = 0
KFL1 121329Z 26008KT M03/M07 A3022 RMK A01 T10291066  RH  076%=      5-min Rain = 0
KFL1 121330Z 26009KT M03/M07 A3022 RMK A01 T10291067  RH  075%=      5-min Rain = 0
KFL1 121331Z 26008KT M03/M07 A3022 RMK A01 T10301069  RH  075%=      5-min Rain = 0
KFL1 121332Z 26008KT M03/M07 A3022 RMK A01 T10301068  RH  075%=      5-min Rain = 0
KFL1 121333Z 26008KT M03/M07 A3022 RMK A01 T10291066  RH  075%=      5-min Rain = 0
KFL1 121334Z 26008KT M03/M07 A3022 RMK A01 T10291066  RH  075%=      5-min Rain = 0
KFL1 121335Z 25008KT M03/M07 A3022 RMK A01 T10301067  RH  075%=      5-min Rain = 0
KFL1 121336Z 25008KT M03/M07 A3022 RMK A01 T10301067  RH  075%=      5-min Rain = 0
KFL1 121337Z 25009KT M03/M07 A3022 RMK A01 T10301067  RH  075%=      5-min Rain = 0
KFL1 121338Z 25009KT M03/M07 A3022 RMK A01 T10281067  RH  075%=      5-min Rain = 0
KFL1 121339Z 25009KT M03/M07 A3022 RMK A01 T10291067  RH  075%=      5-min Rain = 0
KFL1 121340Z 25009KT M03/M07 A3022 RMK A01 T10291067  RH  075%=      5-min Rain = 0
KFL1 121341Z 25010KT M03/M07 A3022 RMK A01 T10301068  RH  075%=      5-min Rain = 0
KFL1 121342Z 25010KT M03/M07 A3022 RMK A01 T10291068  RH  075%=      5-min Rain = 0
KFL1 121343Z 25009KT M03/M07 A3022 RMK A01 T10291067  RH  075%=      5-min Rain = 0
KFL1 121344Z 25008KT M03/M07 A3022 RMK A01 T10311070  RH  075%=      5-min Rain = 0
KFL1 121345Z 25007KT M03/M07 A3022 RMK A01 T10311069  RH  075%=      5-min Rain = 0
KFL1 121346Z 25007KT M03/M07 A3022 RMK A01 T10321070  RH  075%=      5-min Rain = 0
KFL1 121347Z 26005KT M03/M07 A3022 RMK A01 T10331070  RH  075%=      5-min Rain = 0
KFL1 121348Z 34002KT M04/M08 A3022 RMK A01 T10371075  RH  075%=      5-min Rain = 0
KFL1 121349Z 34003KT M04/M08 A3022 RMK A01 T10401081  RH  074%=      5-min Rain = 0
KFL1 121350Z 35003KT M05/M09 A3022 RMK A01 T10471089  RH  072%=      5-min Rain = 0
KFL1 121351Z 01002KT M05/M10 A3022 RMK A01 T10541095  RH  073%=      5-min Rain = 0
KFL1 121352Z 34002KT M06/M09 A3022 RMK A01 T10561090  RH  077%=      5-min Rain = 0
KFL1 121353Z 32002KT M06/M09 A3022 RMK A01 T10591090  RH  079%=      5-min Rain = 0
KFL1 121354Z 34003KT M06/M09 A3022 RMK A01 T10601090  RH  079%=      5-min Rain = 0
KFL1 121355Z 34004KT M06/M09 A3022 RMK A01 T10591086  RH  081%=      5-min Rain = 0
KFL1 121356Z 34004KT M06/M09 A3022 RMK A01 T10591085  RH  082%=      5-min Rain = 0
KFL1 121357Z 33003KT M06/M08 A3022 RMK A01 T10581083  RH  083%=      5-min Rain = 0
KFL1 121358Z 34003KT M05/M08 A3022 RMK A01 T10541079  RH  083%=      5-min Rain = 0
KFL1 121359Z 35004KT M05/M08 A3022 RMK A01 T10511076  RH  082%=      5-min Rain = 0
KFL1 121400Z 34004KT M05/M09 A3023 RMK A01 T10531085  RH  078%=      5-min Rain = 0
KFL1 121401Z 35005KT M06/M09 A3023 RMK A01 T10551086  RH  079%=      5-min Rain = 0
KFL1 121402Z 33006KT M06/M09 A3023 RMK A01 T10551085  RH  080%=      5-min Rain = 0
KFL1 121403Z 34005KT M06/M09 A3023 RMK A01 T10571087  RH  079%=      5-min Rain = 0
KFL1 121404Z 31005KT M06/M09 A3023 RMK A01 T10611092  RH  079%=      5-min Rain = 0
KFL1 121405Z 31005KT M06/M08 A3023 RMK A01 T10571081  RH  083%=      5-min Rain = 0
KFL1 121406Z 30006KT M05/M07 A3023 RMK A01 T10521073  RH  085%=      5-min Rain = 0
KFL1 121407Z 30006KT M05/M07 A3023 RMK A01 T10491072  RH  084%=      5-min Rain = 0
KFL1 121408Z 29005KT M05/M07 A3023 RMK A01 T10461071  RH  083%=      5-min Rain = 0
KFL1 121409Z 31004KT M05/M07 A3023 RMK A01 T10461073  RH  082%=      5-min Rain = 0
KFL1 121410Z 31004KT M05/M07 A3023 RMK A01 T10451074  RH  080%=      5-min Rain = 0
KFL1 121411Z 30005KT M05/M08 A3023 RMK A01 T10481080  RH  078%=      5-min Rain = 0
KFL1 121412Z 28004KT M05/M08 A3023 RMK A01 T10491080  RH  079%=      5-min Rain = 0
KFL1 121413Z 29005KT M05/M08 A3023 RMK A01 T10491079  RH  080%=      5-min Rain = 0
KFL1 121414Z 28003KT M05/M08 A3023 RMK A01 T10511081  RH  080%=      5-min Rain = 0
KFL1 121415Z 29003KT M05/M08 A3023 RMK A01 T10531081  RH  081%=      5-min Rain = 0
KFL1 121416Z 29003KT M05/M08 A3024 RMK A01 T10531082  RH  080%=      5-min Rain = 0
KFL1 121417Z 29001KT M05/M08 A3024 RMK A01 T10531081  RH  080%=      5-min Rain = 0
KFL1 121418Z 28001KT M05/M08 A3024 RMK A01 T10541083  RH  080%=      5-min Rain = 0
KFL1 121419Z 25001KT M05/M08 A3024 RMK A01 T10541081  RH  081%=      5-min Rain = 0
KFL1 121420Z 16001KT M06/M08 A3024 RMK A01 T10551080  RH  082%=      5-min Rain = 0
KFL1 121421Z 16002KT M06/M08 A3024 RMK A01 T10561082  RH  081%=      5-min Rain = 0
KFL1 121422Z 16001KT M06/M09 A3024 RMK A01 T10581087  RH  080%=      5-min Rain = 0
KFL1 121423Z 19002KT M06/M09 A3024 RMK A01 T10581087  RH  081%=      5-min Rain = 0
KFL1 121424Z 16001KT M06/M09 A3024 RMK A01 T10601087  RH  082%=      5-min Rain = 0
KFL1 121425Z 12001KT M06/M09 A3024 RMK A01 T10621089  RH  081%=      5-min Rain = 0
KFL1 121426Z 09002KT M06/M09 A3024 RMK A01 T10631088  RH  082%=      5-min Rain = 0
KFL1 121427Z 08001KT M06/M09 A3024 RMK A01 T10621087  RH  083%=      5-min Rain = 0
KFL1 121428Z 07001KT M06/M09 A3024 RMK A01 T10631088  RH  083%=      5-min Rain = 0
KFL1 121429Z 08001KT M07/M09 A3024 RMK A01 T10651090  RH  082%=      5-min Rain = 0
KFL1 121430Z 10001KT M07/M09 A3024 RMK A01 T10651090  RH  083%=      5-min Rain = 0
KFL1 121431Z 16001KT M07/M09 A3024 RMK A01 T10661089  RH  084%=      5-min Rain = 0
KFL1 121432Z 14001KT M06/M09 A3024 RMK A01 T10641086  RH  085%=      5-min Rain = 0
KFL1 121433Z 16001KT M06/M09 A3024 RMK A01 T10631085  RH  084%=      5-min Rain = 0
KFL1 121434Z 12000KT M06/M09 A3024 RMK A01 T10641087  RH  084%=      5-min Rain = 0
KFL1 121435Z 00000KT M06/M09 A3024 RMK A01 T10641087  RH  084%=      5-min Rain = 0
KFL1 121436Z 26000KT M06/M09 A3024 RMK A01 T10641087  RH  084%=      5-min Rain = 0
KFL1 121437Z 00000KT M06/M09 A3024 RMK A01 T10641088  RH  083%=      5-min Rain = 0
KFL1 121438Z 00000KT M06/M09 A3024 RMK A01 T10621085  RH  083%=      5-min Rain = 0
KFL1 121439Z 15000KT M06/M08 A3024 RMK A01 T10601083  RH  084%=      5-min Rain = 0
KFL1 121440Z 17000KT M06/M08 A3024 RMK A01 T10591082  RH  084%=      5-min Rain = 0
KFL1 121441Z 20001KT M06/M08 A3024 RMK A01 T10581082  RH  084%=      5-min Rain = 0
KFL1 121442Z 18001KT M06/M08 A3024 RMK A01 T10561080  RH  084%=      5-min Rain = 0
KFL1 121443Z 10000KT M05/M08 A3024 RMK A01 T10541079  RH  083%=      5-min Rain = 0
KFL1 121444Z 04001KT M06/M09 A3024 RMK A01 T10551085  RH  080%=      5-min Rain = 0
KFL1 121445Z 03002KT M06/M09 A3024 RMK A01 T10581089  RH  079%=      5-min Rain = 0
KFL1 121446Z 04002KT M06/M09 A3024 RMK A01 T10591089  RH  080%=      5-min Rain = 0
KFL1 121447Z 03002KT M06/M09 A3024 RMK A01 T10581087  RH  080%=      5-min Rain = 0
KFL1 121448Z 03001KT M06/M09 A3024 RMK A01 T10591090  RH  079%=      5-min Rain = 0
KFL1 121449Z 05001KT M06/M09 A3024 RMK A01 T10601088  RH  080%=      5-min Rain = 0
KFL1 121450Z 05002KT M06/M09 A3024 RMK A01 T10591086  RH  081%=      5-min Rain = 0
KFL1 121451Z 04001KT M06/M09 A3024 RMK A01 T10581087  RH  080%=      5-min Rain = 0
KFL1 121452Z 02002KT M06/M10 A3024 RMK A01 T10611098  RH  075%=      5-min Rain = 0
KFL1 121453Z 02002KT M07/M10 A3024 RMK A01 T10651099  RH  077%=      5-min Rain = 0
KFL1 121454Z 03002KT M06/M09 A3024 RMK A01 T10641092  RH  080%=      5-min Rain = 0
KFL1 121455Z 03002KT M06/M09 A3024 RMK A01 T10611086  RH  082%=      5-min Rain = 0
KFL1 121456Z 02002KT M06/M08 A3025 RMK A01 T10581084  RH  082%=      5-min Rain = 0
KFL1 121457Z 02002KT M05/M08 A3025 RMK A01 T10541083  RH  080%=      5-min Rain = 0
KFL1 121458Z 35001KT M05/M09 A3025 RMK A01 T10541087  RH  078%=      5-min Rain = 0
KFL1 121459Z 04001KT M05/M09 A3025 RMK A01 T10531086  RH  078%=      5-min Rain = 0
KFL1 121500Z 02002KT M05/M08 A3025 RMK A01 T10511082  RH  079%=      5-min Rain = 0
KFL1 121501Z 03002KT M05/M09 A3025 RMK A01 T10531090  RH  075%=      5-min Rain = 0
KFL1 121502Z 36002KT M06/M10 A3025 RMK A01 T10581097  RH  074%=      5-min Rain = 0
KFL1 121503Z 02002KT M06/M10 A3025 RMK A01 T10611101  RH  073%=      5-min Rain = 0
KFL1 121504Z 01001KT M07/M10 A3025 RMK A01 T10661104  RH  074%=      5-min Rain = 0
KFL1 121505Z 04001KT M07/M10 A3025 RMK A01 T10661099  RH  078%=      5-min Rain = 0
KFL1 121506Z 05001KT M07/M10 A3025 RMK A01 T10661095  RH  079%=      5-min Rain = 0
KFL1 121507Z 03000KT M06/M09 A3025 RMK A01 T10631092  RH  080%=      5-min Rain = 0
KFL1 121508Z 01001KT M06/M10 A3025 RMK A01 T10631096  RH  077%=      5-min Rain = 0
KFL1 121509Z 04002KT M06/M09 A3025 RMK A01 T10631091  RH  081%=      5-min Rain = 0
KFL1 121510Z 04004KT M06/M09 A3025 RMK A01 T10581085  RH  082%=      5-min Rain = 0
KFL1 121511Z 04003KT M05/M08 A3025 RMK A01 T10531082  RH  081%=      5-min Rain = 0
KFL1 121512Z 04003KT M05/M08 A3025 RMK A01 T10491080  RH  079%=      5-min Rain = 0
KFL1 121513Z 04003KT M05/M08 A3025 RMK A01 T10471080  RH  078%=      5-min Rain = 0
KFL1 121514Z 04002KT M05/M08 A3025 RMK A01 T10451079  RH  077%=      5-min Rain = 0
KFL1 121515Z 02002KT M05/M08 A3025 RMK A01 T10451080  RH  076%=      5-min Rain = 0
KFL1 121516Z 02002KT M04/M08 A3025 RMK A01 T10441080  RH  076%=      5-min Rain = 0
KFL1 121517Z 01002KT M04/M08 A3025 RMK A01 T10421080  RH  075%=      5-min Rain = 0
KFL1 121518Z 01002KT M04/M08 A3025 RMK A01 T10401080  RH  074%=      5-min Rain = 0
KFL1 121519Z 36001KT M04/M08 A3025 RMK A01 T10401082  RH  073%=      5-min Rain = 0
KFL1 121520Z 34001KT M04/M09 A3026 RMK A01 T10411085  RH  071%=      5-min Rain = 0
KFL1 121521Z 01000KT M05/M10 A3026 RMK A01 T10481095  RH  070%=      5-min Rain = 0
KFL1 121522Z 01001KT M05/M10 A3026 RMK A01 T10531098  RH  071%=      5-min Rain = 0
KFL1 121523Z 35000KT M06/M10 A3026 RMK A01 T10561097  RH  073%=      5-min Rain = 0
KFL1 121524Z 00000KT M06/M09 A3026 RMK A01 T10561090  RH  077%=      5-min Rain = 0
KFL1 121525Z 00000KT M05/M09 A3026 RMK A01 T10531085  RH  078%=      5-min Rain = 0
KFL1 121526Z 22000KT M05/M08 A3026 RMK A01 T10491082  RH  078%=      5-min Rain = 0
KFL1 121527Z 08001KT M05/M08 A3026 RMK A01 T10451077  RH  078%=      5-min Rain = 0
KFL1 121528Z 03001KT M04/M08 A3026 RMK A01 T10411076  RH  076%=      5-min Rain = 0
KFL1 121529Z 05002KT M04/M08 A3026 RMK A01 T10381078  RH  074%=      5-min Rain = 0
KFL1 121530Z 03002KT M04/M08 A3026 RMK A01 T10381082  RH  072%=      5-min Rain = 0
KFL1 121531Z 03003KT M04/M08 A3026 RMK A01 T10391081  RH  072%=      5-min Rain = 0
KFL1 121532Z 03003KT M04/M08 A3026 RMK A01 T10381080  RH  073%=      5-min Rain = 0
KFL1 121533Z 03003KT M04/M08 A3026 RMK A01 T10381081  RH  072%=      5-min Rain = 0
KFL1 121534Z 03001KT M04/M08 A3026 RMK A01 T10371080  RH  072%=      5-min Rain = 0
KFL1 121535Z 07001KT M04/M08 A3026 RMK A01 T10361078  RH  072%=      5-min Rain = 0
KFL1 121536Z 06000KT M03/M08 A3026 RMK A01 T10341076  RH  073%=      5-min Rain = 0
KFL1 121537Z 08000KT M03/M08 A3026 RMK A01 T10321076  RH  071%=      5-min Rain = 0
KFL1 121538Z 00000KT M03/M08 A3026 RMK A01 T10291075  RH  070%=      5-min Rain = 0
KFL1 121539Z 21000KT M03/M07 A3027 RMK A01 T10251073  RH  070%=      5-min Rain = 0
KFL1 121540Z 25001KT M02/M07 A3027 RMK A01 T10241074  RH  068%=      5-min Rain = 0
KFL1 121541Z 25002KT M02/M08 A3027 RMK A01 T10241077  RH  067%=      5-min Rain = 0
KFL1 121542Z 22002KT M03/M08 A3027 RMK A01 T10251078  RH  067%=      5-min Rain = 0
KFL1 121543Z 23001KT M03/M08 A3027 RMK A01 T10261079  RH  067%=      5-min Rain = 0
KFL1 121544Z 24002KT M03/M08 A3027 RMK A01 T10271079  RH  067%=      5-min Rain = 0
KFL1 121545Z 25002KT M03/M08 A3027 RMK A01 T10281079  RH  068%=      5-min Rain = 0
KFL1 121546Z 25001KT M03/M08 A3027 RMK A01 T10281078  RH  068%=      5-min Rain = 0
KFL1 121547Z 26001KT M03/M08 A3027 RMK A01 T10251075  RH  068%=      5-min Rain = 0
KFL1 121548Z 26000KT M02/M08 A3027 RMK A01 T10231075  RH  068%=      5-min Rain = 0
KFL1 121549Z 00000KT M02/M08 A3027 RMK A01 T10241076  RH  067%=      5-min Rain = 0
KFL1 121550Z 25001KT M02/M07 A3027 RMK A01 T10211073  RH  067%=      5-min Rain = 0
KFL1 121551Z 22000KT M02/M07 A3027 RMK A01 T10181071  RH  067%=      5-min Rain = 0
KFL1 121552Z 21000KT M02/M07 A3027 RMK A01 T10171070  RH  067%=      5-min Rain = 0
KFL1 121553Z 22001KT M02/M07 A3027 RMK A01 T10151070  RH  066%=      5-min Rain = 0
KFL1 121554Z 18000KT M01/M07 A3027 RMK A01 T10141072  RH  064%=      5-min Rain = 0
KFL1 121555Z 22000KT M02/M07 A3027 RMK A01 T10151074  RH  064%=      5-min Rain = 0
KFL1 121556Z 22001KT M02/M07 A3027 RMK A01 T10151073  RH  065%=      5-min Rain = 0
KFL1 121557Z 22001KT M02/M07 A3027 RMK A01 T10161074  RH  065%=      5-min Rain = 0
KFL1 121558Z 21001KT M02/M07 A3027 RMK A01 T10161073  RH  065%=      5-min Rain = 0
KFL1 121559Z 22002KT M02/M07 A3027 RMK A01 T10151072  RH  065%=      5-min Rain = 0
KFL1 121600Z 20003KT M02/M07 A3027 RMK A01 T10161072  RH  065%=      5-min Rain = 0
KFL1 121601Z 20003KT M02/M07 A3027 RMK A01 T10161070  RH  066%=      5-min Rain = 0
KFL1 121602Z 20004KT M02/M07 A3027 RMK A01 T10151068  RH  067%=      5-min Rain = 0
KFL1 121603Z 19004KT M02/M07 A3027 RMK A01 T10151068  RH  067%=      5-min Rain = 0
KFL1 121604Z 19003KT M01/M07 A3027 RMK A01 T10131066  RH  067%=      5-min Rain = 0
KFL1 121605Z 20003KT M01/M07 A3027 RMK A01 T10141068  RH  067%=      5-min Rain = 0
KFL1 121606Z 20004KT M01/M07 A3027 RMK A01 T10141067  RH  067%=      5-min Rain = 0
KFL1 121607Z 20004KT M01/M06 A3027 RMK A01 T10131064  RH  068%=      5-min Rain = 0
KFL1 121608Z 21004KT M01/M06 A3027 RMK A01 T10131064  RH  068%=      5-min Rain = 0
KFL1 121609Z 21005KT M01/M06 A3027 RMK A01 T10121064  RH  068%=      5-min Rain = 0
KFL1 121610Z 21004KT M01/M06 A3027 RMK A01 T10101062  RH  068%=      5-min Rain = 0
KFL1 121611Z 22004KT M01/M06 A3027 RMK A01 T10111063  RH  068%=      5-min Rain = 0
KFL1 121612Z 23004KT M01/M06 A3027 RMK A01 T10121063  RH  068%=      5-min Rain = 0
KFL1 121613Z 22004KT M01/M06 A3027 RMK A01 T10111061  RH  069%=      5-min Rain = 0
KFL1 121614Z 23004KT M01/M06 A3027 RMK A01 T10111061  RH  069%=      5-min Rain = 0
KFL1 121615Z 24007KT M01/M06 A3027 RMK A01 T10101059  RH  069%=      5-min Rain = 0
KFL1 121616Z 25007KT M01/M06 A3027 RMK A01 T10081057  RH  069%=      5-min Rain = 0
KFL1 121617Z 24006KT M01/M06 A3027 RMK A01 T10091058  RH  070%=      5-min Rain = 0
KFL1 121618Z 24006KT M01/M06 A3027 RMK A01 T10111058  RH  070%=      5-min Rain = 0
KFL1 121619Z 24007KT M01/M06 A3027 RMK A01 T10101056  RH  071%=      5-min Rain = 0
KFL1 121620Z 25006KT M01/M06 A3027 RMK A01 T10101057  RH  070%=      5-min Rain = 0
KFL1 121621Z 24006KT M01/M06 A3027 RMK A01 T10101057  RH  070%=      5-min Rain = 0
KFL1 121622Z 25008KT M01/M06 A3027 RMK A01 T10091056  RH  070%=      5-min Rain = 0
KFL1 121623Z 24007KT M01/M06 A3027 RMK A01 T10081055  RH  071%=      5-min Rain = 0
KFL1 121624Z 25008KT M01/M06 A3027 RMK A01 T10091056  RH  071%=      5-min Rain = 0
KFL1 121625Z 24006KT M01/M05 A3027 RMK A01 T10061053  RH  070%=      5-min Rain = 0
KFL1 121626Z 24007KT M01/M05 A3027 RMK A01 T10071054  RH  070%=      5-min Rain = 0
KFL1 121627Z 26007KT M01/M05 A3027 RMK A01 T10061054  RH  070%=      5-min Rain = 0
KFL1 121628Z 25007KT M01/M06 A3027 RMK A01 T10061055  RH  069%=      5-min Rain = 0
KFL1 121629Z 25006KT M01/M05 A3027 RMK A01 T10051054  RH  069%=      5-min Rain = 0
KFL1 121630Z 25008KT M00/M05 A3027 RMK A01 T10031054  RH  069%=      5-min Rain = 0
KFL1 121631Z 25007KT M00/M05 A3028 RMK A01 T10031054  RH  068%=      5-min Rain = 0
KFL1 121632Z 25007KT M00/M05 A3028 RMK A01 T10031054  RH  069%=      5-min Rain = 0
KFL1 121633Z 25007KT M00/M05 A3028 RMK A01 T10021054  RH  068%=      5-min Rain = 0
KFL1 121634Z 25007KT M00/M05 A3028 RMK A01 T10011053  RH  068%=      5-min Rain = 0
KFL1 121635Z 25007KT 00/M05 A3028 RMK A01 T00011051  RH  068%=      5-min Rain = 0
KFL1 121636Z 25008KT 00/05 A3028 RMK A01 T00-00-52  RH  068%=      5-min Rain = 0
KFL1 121637Z 25006KT 00/M05 A3028 RMK A01 T00021050  RH  068%=      5-min Rain = 0
KFL1 121638Z 26008KT 00/M05 A3027 RMK A01 T00021049  RH  068%=      5-min Rain = 0
KFL1 121639Z 25007KT 00/M05 A3027 RMK A01 T00021050  RH  068%=      5-min Rain = 0
KFL1 121640Z 25006KT 00/M05 A3027 RMK A01 T00011050  RH  068%=      5-min Rain = 0
KFL1 121641Z 24007KT 00/M05 A3027 RMK A01 T00021049  RH  069%=      5-min Rain = 0
KFL1 121642Z 24007KT 00/M05 A3027 RMK A01 T00021050  RH  068%=      5-min Rain = 0
KFL1 121643Z 25006KT 00/M05 A3027 RMK A01 T00021050  RH  068%=      5-min Rain = 0
KFL1 121644Z 25005KT 00/M05 A3027 RMK A01 T00021050  RH  068%=      5-min Rain = 0
KFL1 121645Z 25006KT 00/M05 A3027 RMK A01 T00041048  RH  068%=      5-min Rain = 0
KFL1 121646Z 26006KT 01/M05 A3027 RMK A01 T00061048  RH  067%=      5-min Rain = 0
KFL1 121647Z 27006KT 01/M05 A3028 RMK A01 T00071047  RH  067%=      5-min Rain = 0
KFL1 121648Z 26005KT 01/M04 A3028 RMK A01 T00091044  RH  068%=      5-min Rain = 0
KFL1 121649Z 26005KT 01/M04 A3027 RMK A01 T00091043  RH  068%=      5-min Rain = 0
KFL1 121650Z 26006KT 01/M04 A3027 RMK A01 T00111043  RH  067%=      5-min Rain = 0
KFL1 121651Z 27006KT 01/M04 A3027 RMK A01 T00141042  RH  066%=      5-min Rain = 0
KFL1 121652Z 27007KT 01/M04 A3028 RMK A01 T00141044  RH  066%=      5-min Rain = 0
KFL1 121653Z 28008KT 02/M04 A3028 RMK A01 T00171044  RH  064%=      5-min Rain = 0
KFL1 121654Z 29011KT 02/M05 A3028 RMK A01 T00191045  RH  063%=      5-min Rain = 0
KFL1 121655Z 30010KT 02/M05 A3028 RMK A01 T00181045  RH  063%=      5-min Rain = 0
KFL1 121656Z 29010KT 02/M05 A3028 RMK A01 T00211045  RH  062%=      5-min Rain = 0
KFL1 121657Z 29010KT 02/M04 A3028 RMK A01 T00241043  RH  061%=      5-min Rain = 0
KFL1 121658Z 28009KT 02/M05 A3028 RMK A01 T00241045  RH  060%=      5-min Rain = 0
KFL1 121659Z 28011KT 02/M05 A3028 RMK A01 T00241047  RH  060%=      5-min Rain = 0
KFL1 121700Z 30010KT 03/M05 A3028 RMK A01 T00251047  RH  059%=      5-min Rain = 0
KFL1 121701Z 29010KT 03/M05 A3028 RMK A01 T00261046  RH  059%=      5-min Rain = 0
KFL1 121702Z 29009KT 03/M05 A3028 RMK A01 T00261047  RH  059%=      5-min Rain = 0
KFL1 121703Z 29012KT 03/M05 A3028 RMK A01 T00261046  RH  059%=      5-min Rain = 0
KFL1 121704Z 29010G15KT 03/M04 A3028 RMK A01 T00261044  RH  060%=      5-min Rain = 0
KFL1 121705Z 30013KT 03/M05 A3028 RMK A01 T00271045  RH  059%=      5-min Rain = 0
KFL1 121706Z 29015KT 03/M05 A3028 RMK A01 T00271047  RH  058%=      5-min Rain = 0
KFL1 121707Z 29013KT 03/M05 A3028 RMK A01 T00291046  RH  058%=      5-min Rain = 0
KFL1 121708Z 29013KT 03/M05 A3028 RMK A01 T00281049  RH  057%=      5-min Rain = 0
KFL1 121709Z 29013KT 03/M05 A3028 RMK A01 T00301045  RH  058%=      5-min Rain = 0
KFL1 121710Z 29011KT 03/M04 A3028 RMK A01 T00301044  RH  058%=      5-min Rain = 0
KFL1 121711Z 28013KT 03/M05 A3028 RMK A01 T00291046  RH  058%=      5-min Rain = 0
KFL1 121712Z 29012KT 03/M05 A3028 RMK A01 T00301046  RH  058%=      5-min Rain = 0
KFL1 121713Z 29013KT 03/M04 A3028 RMK A01 T00311044  RH  058%=      5-min Rain = 0
KFL1 121714Z 29011KT 03/M05 A3028 RMK A01 T00301046  RH  058%=      5-min Rain = 0
KFL1 121715Z 29010KT 03/M05 A3028 RMK A01 T00301046  RH  057%=      5-min Rain = 0
KFL1 121716Z 29011G16KT 03/M05 A3028 RMK A01 T00301046  RH  057%=      5-min Rain = 0
KFL1 121717Z 30014KT 03/M05 A3028 RMK A01 T00321046  RH  057%=      5-min Rain = 0
KFL1 121718Z 30011KT 03/M05 A3028 RMK A01 T00311047  RH  056%=      5-min Rain = 0
KFL1 121719Z 29012KT 03/M05 A3028 RMK A01 T00311045  RH  057%=      5-min Rain = 0
KFL1 121720Z 29014G19KT 03/M04 A3028 RMK A01 T00331041  RH  058%=      5-min Rain = 0
KFL1 121721Z 30014KT 03/M04 A3028 RMK A01 T00321044  RH  057%=      5-min Rain = 0
KFL1 121722Z 30014KT 03/M05 A3028 RMK A01 T00321045  RH  057%=      5-min Rain = 0
KFL1 121723Z 31011KT 03/M05 A3028 RMK A01 T00341046  RH  056%=      5-min Rain = 0
KFL1 121724Z 29010KT 03/M04 A3028 RMK A01 T00321044  RH  057%=      5-min Rain = 0
KFL1 121725Z 28011KT 03/M04 A3028 RMK A01 T00331044  RH  057%=      5-min Rain = 0
KFL1 121726Z 29015KT 03/M04 A3028 RMK A01 T00331044  RH  057%=      5-min Rain = 0
KFL1 121727Z 30015KT 03/M04 A3028 RMK A01 T00341043  RH  057%=      5-min Rain = 0
KFL1 121728Z 30011KT 03/M05 A3028 RMK A01 T00331045  RH  056%=      5-min Rain = 0
KFL1 121729Z 28011KT 03/M04 A3028 RMK A01 T00331044  RH  057%=      5-min Rain = 0
KFL1 121730Z 29014KT 03/M05 A3028 RMK A01 T00321045  RH  057%=      5-min Rain = 0
KFL1 121731Z 29014G19KT 03/M04 A3028 RMK A01 T00341044  RH  057%=      5-min Rain = 0
KFL1 121732Z 29014KT 04/M04 A3028 RMK A01 T00351043  RH  057%=      5-min Rain = 0
KFL1 121733Z 30014KT 03/M05 A3028 RMK A01 T00341046  RH  056%=      5-min Rain = 0
KFL1 121734Z 29012KT 04/M05 A3028 RMK A01 T00351045  RH  056%=      5-min Rain = 0
KFL1 121735Z 30014KT 04/M04 A3028 RMK A01 T00361042  RH  057%=      5-min Rain = 0
KFL1 121736Z 30012KT 04/M04 A3028 RMK A01 T00351044  RH  056%=      5-min Rain = 0
KFL1 121737Z 30011KT 04/M04 A3028 RMK A01 T00361043  RH  056%=      5-min Rain = 0
KFL1 121738Z 30012KT 04/M04 A3028 RMK A01 T00351043  RH  057%=      5-min Rain = 0
KFL1 121739Z 29012KT 04/M04 A3028 RMK A01 T00371041  RH  057%=      5-min Rain = 0
KFL1 121740Z 28011KT 04/M04 A3028 RMK A01 T00371041  RH  056%=      5-min Rain = 0
KFL1 121741Z 29013KT 04/M04 A3028 RMK A01 T00371043  RH  056%=      5-min Rain = 0
KFL1 121742Z 30012KT 04/M04 A3028 RMK A01 T00371042  RH  056%=      5-min Rain = 0
KFL1 121743Z 29011KT 04/M04 A3028 RMK A01 T00361041  RH  057%=      5-min Rain = 0
KFL1 121744Z 29008KT 04/M04 A3028 RMK A01 T00381043  RH  056%=      5-min Rain = 0
KFL1 121745Z 30012KT 04/M04 A3028 RMK A01 T00391041  RH  056%=      5-min Rain = 0
KFL1 121746Z 28013KT 04/M04 A3028 RMK A01 T00391040  RH  056%=      5-min Rain = 0
KFL1 121747Z 29015KT 04/M04 A3028 RMK A01 T00391041  RH  056%=      5-min Rain = 0
KFL1 121748Z 30013KT 04/M04 A3028 RMK A01 T00371043  RH  056%=      5-min Rain = 0
KFL1 121749Z 29012G17KT 04/M04 A3028 RMK A01 T00371041  RH  057%=      5-min Rain = 0
KFL1 121750Z 29012KT 04/M04 A3027 RMK A01 T00371043  RH  056%=      5-min Rain = 0
KFL1 121751Z 29014KT 04/M04 A3027 RMK A01 T00371043  RH  056%=      5-min Rain = 0
KFL1 121752Z 30015KT 04/M04 A3027 RMK A01 T00381042  RH  056%=      5-min Rain = 0
KFL1 121753Z 29013KT 04/M04 A3027 RMK A01 T00381043  RH  056%=      5-min Rain = 0
KFL1 121754Z 29012KT 04/M04 A3027 RMK A01 T00381042  RH  056%=      5-min Rain = 0
KFL1 121755Z 30012G18KT 04/M04 A3028 RMK A01 T00381042  RH  056%=      5-min Rain = 0
KFL1 121756Z 30017KT 04/M04 A3027 RMK A01 T00381042  RH  056%=      5-min Rain = 0
KFL1 121757Z 31014KT 04/M04 A3027 RMK A01 T00391043  RH  055%=      5-min Rain = 0
KFL1 121758Z 30014KT 04/M04 A3027 RMK A01 T00401041  RH  055%=      5-min Rain = 0
KFL1 121759Z 31015KT 04/M04 A3027 RMK A01 T00381042  RH  056%=      5-min Rain = 0
KFL1 121800Z 31016G21KT 04/M04 A3027 RMK A01 T00391039  RH  057%=      5-min Rain = 0
KFL1 121801Z 29013KT 04/M04 A3027 RMK A01 T00391042  RH  056%=      5-min Rain = 0
KFL1 121802Z 30016KT 04/M04 A3027 RMK A01 T00391041  RH  056%=      5-min Rain = 0
KFL1 121803Z 30011KT 04/M04 A3027 RMK A01 T00391041  RH  056%=      5-min Rain = 0
KFL1 121804Z 29011KT 04/M04 A3027 RMK A01 T00401038  RH  057%=      5-min Rain = 0
KFL1 121805Z 32011KT 04/M04 A3027 RMK A01 T00401040  RH  056%=      5-min Rain = 0
KFL1 121806Z 31014KT 04/M04 A3027 RMK A01 T00401039  RH  056%=      5-min Rain = 0
KFL1 121807Z 30016G24KT 04/M04 A3027 RMK A01 T00421038  RH  056%=      5-min Rain = 0
KFL1 121808Z 31015KT 04/M04 A3027 RMK A01 T00421040  RH  055%=      5-min Rain = 0
KFL1 121809Z 30014KT 04/M04 A3027 RMK A01 T00411042  RH  055%=      5-min Rain = 0
KFL1 121810Z 30016KT 04/M04 A3027 RMK A01 T00411043  RH  054%=      5-min Rain = 0
KFL1 121811Z 30015G20KT 04/M04 A3027 RMK A01 T00431039  RH  055%=      5-min Rain = 0
KFL1 121812Z 29016G21KT 04/M04 A3027 RMK A01 T00411040  RH  056%=      5-min Rain = 0
KFL1 121813Z 31014KT 04/M04 A3027 RMK A01 T00411039  RH  056%=      5-min Rain = 0
KFL1 121814Z 30017G22KT 04/M04 A3027 RMK A01 T00401042  RH  055%=      5-min Rain = 0
KFL1 121815Z 31015KT 04/M04 A3027 RMK A01 T00401044  RH  054%=      5-min Rain = 0
KFL1 121816Z 31015KT 04/M04 A3027 RMK A01 T00411042  RH  055%=      5-min Rain = 0
KFL1 121817Z 31017G22KT 04/M04 A3027 RMK A01 T00401041  RH  056%=      5-min Rain = 0
KFL1 121818Z 31020KT 04/M04 A3027 RMK A01 T00411043  RH  055%=      5-min Rain = 0
KFL1 121819Z 30015KT 04/M05 A3027 RMK A01 T00391045  RH  054%=      5-min Rain = 0
KFL1 121820Z 31018KT 04/M04 A3027 RMK A01 T00401040  RH  056%=      5-min Rain = 0
KFL1 121821Z 30013G18KT 04/M04 A3027 RMK A01 T00391041  RH  056%=      5-min Rain = 0
KFL1 121822Z 31016G23KT 04/M04 A3027 RMK A01 T00401041  RH  056%=      5-min Rain = 0
KFL1 121823Z 30018G23KT 04/M04 A3027 RMK A01 T00411043  RH  055%=      5-min Rain = 0
KFL1 121824Z 30018KT 04/M04 A3027 RMK A01 T00391040  RH  056%=      5-min Rain = 0
KFL1 121825Z 30019KT 04/M04 A3027 RMK A01 T00391041  RH  056%=      5-min Rain = 0
KFL1 121826Z 30017KT 04/M04 A3027 RMK A01 T00381043  RH  055%=      5-min Rain = 0
KFL1 121827Z 30016G21KT 04/M04 A3027 RMK A01 T00401041  RH  056%=      5-min Rain = 0
KFL1 121828Z 30019KT 04/M04 A3027 RMK A01 T00381043  RH  055%=      5-min Rain = 0
KFL1 121829Z 29014KT 04/M04 A3027 RMK A01 T00381042  RH  056%=      5-min Rain = 0
KFL1 121830Z 31011KT 04/M04 A3027 RMK A01 T00381039  RH  057%=      5-min Rain = 0
KFL1 121831Z 30012KT 04/M04 A3027 RMK A01 T00391038  RH  057%=      5-min Rain = 0
KFL1 121832Z 29013KT 04/M04 A3027 RMK A01 T00401036  RH  057%=      5-min Rain = 0
KFL1 121833Z 31015KT 04/M04 A3027 RMK A01 T00401039  RH  056%=      5-min Rain = 0
KFL1 121834Z 30014KT 04/M04 A3027 RMK A01 T00421041  RH  055%=      5-min Rain = 0
KFL1 121835Z 31016KT 04/M04 A3027 RMK A01 T00421041  RH  055%=      5-min Rain = 0
KFL1 121836Z 31013KT 04/M04 A3027 RMK A01 T00401041  RH  055%=      5-min Rain = 0
KFL1 121837Z 31016KT 04/M04 A3027 RMK A01 T00401041  RH  055%=      5-min Rain = 0
KFL1 121838Z 31013KT 04/M04 A3027 RMK A01 T00421041  RH  055%=      5-min Rain = 0
KFL1 121839Z 31014KT 04/M04 A3027 RMK A01 T00411042  RH  055%=      5-min Rain = 0
KFL1 121840Z 30014G20KT 04/M04 A3027 RMK A01 T00411038  RH  057%=      5-min Rain = 0
KFL1 121841Z 30013KT 04/M04 A3027 RMK A01 T00421038  RH  056%=      5-min Rain = 0
KFL1 121842Z 30009KT 04/M04 A3027 RMK A01 T00421040  RH  055%=      5-min Rain = 0
KFL1 121843Z 29012G17KT 04/M04 A3027 RMK A01 T00431036  RH  056%=      5-min Rain = 0
KFL1 121844Z 31017KT 04/M04 A3027 RMK A01 T00421039  RH  055%=      5-min Rain = 0
KFL1 121845Z 30016G21KT 04/M04 A3027 RMK A01 T00431040  RH  055%=      5-min Rain = 0
KFL1 121846Z 30013KT 04/M04 A3027 RMK A01 T00421040  RH  055%=      5-min Rain = 0
KFL1 121847Z 29015KT 04/M04 A3027 RMK A01 T00421040  RH  055%=      5-min Rain = 0
KFL1 121848Z 31015G20KT 04/M04 A3027 RMK A01 T00411041  RH  055%=      5-min Rain = 0
KFL1 121849Z 30015KT 04/M04 A3027 RMK A01 T00421039  RH  056%=      5-min Rain = 0
KFL1 121850Z 30015KT 04/M04 A3027 RMK A01 T00421040  RH  055%=      5-min Rain = 0
KFL1 121851Z 30014G19KT 04/M04 A3026 RMK A01 T00411043  RH  055%=      5-min Rain = 0
KFL1 121852Z 29016KT 04/M04 A3026 RMK A01 T00411041  RH  055%=      5-min Rain = 0
KFL1 121853Z 31016KT 04/M04 A3026 RMK A01 T00401042  RH  055%=      5-min Rain = 0
KFL1 121854Z 30015KT 04/M04 A3026 RMK A01 T00411040  RH  056%=      5-min Rain = 0
KFL1 121855Z 30014KT 04/M04 A3026 RMK A01 T00411039  RH  056%=      5-min Rain = 0
KFL1 121856Z 31013KT 04/M04 A3026 RMK A01 T00401040  RH  056%=      5-min Rain = 0
KFL1 121857Z 29013KT 04/M04 A3026 RMK A01 T00421036  RH  057%=      5-min Rain = 0
KFL1 121858Z 30016KT 04/M04 A3026 RMK A01 T00411037  RH  057%=      5-min Rain = 0
KFL1 121859Z 30015KT 04/M04 A3026 RMK A01 T00421036  RH  057%=      5-min Rain = 0
KFL1 121900Z 30017KT 04/M04 A3026 RMK A01 T00411037  RH  057%=      5-min Rain = 0
KFL1 121901Z 30013KT 04/M04 A3026 RMK A01 T00421038  RH  056%=      5-min Rain = 0
KFL1 121902Z 30013KT 04/M04 A3026 RMK A01 T00411039  RH  056%=      5-min Rain = 0
KFL1 121903Z 29017KT 04/M04 A3026 RMK A01 T00411040  RH  056%=      5-min Rain = 0
KFL1 121904Z 29015KT 04/M04 A3026 RMK A01 T00411043  RH  054%=      5-min Rain = 0
KFL1 121905Z 30014KT 04/M04 A3026 RMK A01 T00391042  RH  056%=      5-min Rain = 0
KFL1 121906Z 30013KT 04/M04 A3026 RMK A01 T00421036  RH  057%=      5-min Rain = 0
KFL1 121907Z 31013KT 04/M04 A3026 RMK A01 T00431037  RH  056%=      5-min Rain = 0
KFL1 121908Z 31012KT 04/M04 A3026 RMK A01 T00421039  RH  056%=      5-min Rain = 0
KFL1 121909Z 30010KT 04/M04 A3026 RMK A01 T00411036  RH  057%=      5-min Rain = 0
KFL1 121910Z 30015KT 04/M03 A3025 RMK A01 T00431034  RH  057%=      5-min Rain = 0
KFL1 121911Z 30014KT 05/M04 A3025 RMK A01 T00451037  RH  055%=      5-min Rain = 0
KFL1 121912Z 29015KT 04/M04 A3026 RMK A01 T00431038  RH  056%=      5-min Rain = 0
KFL1 121913Z 31015KT 04/M04 A3026 RMK A01 T00431036  RH  057%=      5-min Rain = 0
KFL1 121914Z 31015KT 04/M04 A3026 RMK A01 T00421037  RH  056%=      5-min Rain = 0
KFL1 121915Z 31013G18KT 04/M04 A3025 RMK A01 T00421040  RH  055%=      5-min Rain = 0
KFL1 121916Z 30016KT 04/M04 A3025 RMK A01 T00441038  RH  055%=      5-min Rain = 0
KFL1 121917Z 29017KT 04/M04 A3025 RMK A01 T00431040  RH  055%=      5-min Rain = 0
KFL1 121918Z 30013KT 04/M04 A3025 RMK A01 T00421040  RH  055%=      5-min Rain = 0
KFL1 121919Z 29016KT 04/M04 A3025 RMK A01 T00411039  RH  056%=      5-min Rain = 0
KFL1 121920Z 30015KT 04/M04 A3025 RMK A01 T00431038  RH  056%=      5-min Rain = 0
KFL1 121921Z 29015KT 04/M04 A3025 RMK A01 T00411038  RH  056%=      5-min Rain = 0
KFL1 121922Z 30015KT 04/M04 A3025 RMK A01 T00411039  RH  056%=      5-min Rain = 0
KFL1 121923Z 31013KT 04/M04 A3025 RMK A01 T00431039  RH  055%=      5-min Rain = 0
KFL1 121924Z 29012KT 04/M04 A3025 RMK A01 T00431042  RH  054%=      5-min Rain = 0
KFL1 121925Z 30015KT 04/M04 A3025 RMK A01 T00431040  RH  055%=      5-min Rain = 0
KFL1 121926Z 29018KT 04/M04 A3025 RMK A01 T00441042  RH  054%=      5-min Rain = 0
KFL1 121927Z 29017KT 04/M04 A3025 RMK A01 T00441039  RH  055%=      5-min Rain = 0
KFL1 121928Z 30016KT 04/M04 A3025 RMK A01 T00431040  RH  055%=      5-min Rain = 0
KFL1 121929Z 29016KT 04/M04 A3025 RMK A01 T00441036  RH  056%=      5-min Rain = 0
KFL1 121930Z 30018KT 05/M04 A3025 RMK A01 T00451036  RH  056%=      5-min Rain = 0
KFL1 121931Z 30017KT 04/M04 A3025 RMK A01 T00431038  RH  056%=      5-min Rain = 0
KFL1 121932Z 30014KT 04/M04 A3025 RMK A01 T00411042  RH  055%=      5-min Rain = 0
KFL1 121933Z 31016G22KT 04/M04 A3025 RMK A01 T00431038  RH  056%=      5-min Rain = 0
KFL1 121934Z 31017KT 04/M04 A3025 RMK A01 T00421038  RH  056%=      5-min Rain = 0
KFL1 121935Z 30015G20KT 04/M04 A3025 RMK A01 T00431039  RH  055%=      5-min Rain = 0
KFL1 121936Z 30017G22KT 04/M04 A3025 RMK A01 T00431041  RH  055%=      5-min Rain = 0
KFL1 121937Z 31017KT 04/M04 A3025 RMK A01 T00431042  RH  054%=      5-min Rain = 0
KFL1 121938Z 32019G24KT 04/M04 A3025 RMK A01 T00441042  RH  054%=      5-min Rain = 0
KFL1 121939Z 33017KT 04/M05 A3025 RMK A01 T00431046  RH  052%=      5-min Rain = 0
KFL1 121940Z 30016KT 04/M05 A3025 RMK A01 T00441045  RH  053%=      5-min Rain = 0
KFL1 121941Z 30015KT 04/M04 A3025 RMK A01 T00431044  RH  053%=      5-min Rain = 0
KFL1 121942Z 30013KT 04/M04 A3025 RMK A01 T00431044  RH  053%=      5-min Rain = 0
KFL1 121943Z 30015KT 04/M04 A3025 RMK A01 T00431043  RH  054%=      5-min Rain = 0
KFL1 121944Z 30012KT 04/M04 A3025 RMK A01 T00431042  RH  054%=      5-min Rain = 0
KFL1 121945Z 30015KT 04/M04 A3025 RMK A01 T00441040  RH  054%=      5-min Rain = 0
KFL1 121946Z 31013KT 04/M04 A3025 RMK A01 T00441042  RH  054%=      5-min Rain = 0
KFL1 121947Z 30016KT 05/M04 A3025 RMK A01 T00461042  RH  053%=      5-min Rain = 0
KFL1 121948Z 30017KT 05/M04 A3024 RMK A01 T00451043  RH  053%=      5-min Rain = 0
KFL1 121949Z 30019KT 05/M04 A3024 RMK A01 T00451042  RH  053%=      5-min Rain = 0
KFL1 121950Z 31015G20KT 04/M05 A3024 RMK A01 T00441048  RH  051%=      5-min Rain = 0
KFL1 121951Z 33012KT 04/M05 A3025 RMK A01 T00431047  RH  052%=      5-min Rain = 0
KFL1 121952Z 31016G21KT 04/M04 A3024 RMK A01 T00431043  RH  054%=      5-min Rain = 0
KFL1 121953Z 31015G21KT 04/M04 A3025 RMK A01 T00441040  RH  054%=      5-min Rain = 0
KFL1 121954Z 32014KT 04/M04 A3024 RMK A01 T00441042  RH  054%=      5-min Rain = 0
KFL1 121955Z 31016KT 04/M04 A3024 RMK A01 T00431040  RH  055%=      5-min Rain = 0
KFL1 121956Z 29019KT 04/M04 A3024 RMK A01 T00421042  RH  054%=      5-min Rain = 0
KFL1 121957Z 30020KT 04/M04 A3024 RMK A01 T00431044  RH  053%=      5-min Rain = 0
KFL1 121958Z 30016G21KT 04/M05 A3024 RMK A01 T00411045  RH  054%=      5-min Rain = 0
KFL1 121959Z 29018G23KT 04/M04 A3024 RMK A01 T00391043  RH  055%=      5-min Rain = 0
KFL1 122000Z 30020KT 04/M04 A3024 RMK A01 T00401039  RH  056%=      5-min Rain = 0
KFL1 122001Z 30017KT 04/M04 A3024 RMK A01 T00381041  RH  056%=      5-min Rain = 0
KFL1 122002Z 30015KT 04/M04 A3024 RMK A01 T00391040  RH  056%=      5-min Rain = 0
KFL1 122003Z 30019KT 04/M04 A3024 RMK A01 T00381042  RH  056%=      5-min Rain = 0
KFL1 122004Z 30017KT 04/M04 A3024 RMK A01 T00391041  RH  056%=      5-min Rain = 0
KFL1 122005Z 30016KT 04/M04 A3024 RMK A01 T00391043  RH  055%=      5-min Rain = 0
KFL1 122006Z 31013KT 04/M05 A3024 RMK A01 T00391045  RH  054%=      5-min Rain = 0
KFL1 122007Z 31010KT 04/M04 A3024 RMK A01 T00391041  RH  056%=      5-min Rain = 0
KFL1 122008Z 30012KT 04/M04 A3024 RMK A01 T00421040  RH  055%=      5-min Rain = 0
KFL1 122009Z 32013KT 04/M04 A3023 RMK A01 T00421041  RH  055%=      5-min Rain = 0
KFL1 122010Z 32009KT 04/M04 A3023 RMK A01 T00411042  RH  055%=      5-min Rain = 0
KFL1 122011Z 31009KT 04/M04 A3023 RMK A01 T00421041  RH  055%=      5-min Rain = 0
KFL1 122012Z 30011KT 04/M04 A3023 RMK A01 T00431040  RH  055%=      5-min Rain = 0
KFL1 122013Z 30013KT 05/M04 A3023 RMK A01 T00451041  RH  054%=      5-min Rain = 0
KFL1 122014Z 30012G19KT 05/M04 A3023 RMK A01 T00451042  RH  053%=      5-min Rain = 0
KFL1 122015Z 29018KT 05/M04 A3023 RMK A01 T00451044  RH  052%=      5-min Rain = 0
KFL1 122016Z 31016G21KT 04/M05 A3023 RMK A01 T00441046  RH  052%=      5-min Rain = 0
KFL1 122017Z 32013KT 04/M05 A3023 RMK A01 T00441049  RH  051%=      5-min Rain = 0
KFL1 122018Z 32013KT 04/M05 A3023 RMK A01 T00431046  RH  053%=      5-min Rain = 0
KFL1 122019Z 32011KT 04/M05 A3023 RMK A01 T00441045  RH  053%=      5-min Rain = 0
KFL1 122020Z 32010KT 05/M05 A3023 RMK A01 T00451047  RH  051%=      5-min Rain = 0
KFL1 122021Z 28010G15KT 05/M05 A3023 RMK A01 T00461045  RH  052%=      5-min Rain = 0
KFL1 122022Z 29011KT 05/M05 A3023 RMK A01 T00461048  RH  051%=      5-min Rain = 0
KFL1 122023Z 30012KT 05/M05 A3022 RMK A01 T00461047  RH  051%=      5-min Rain = 0
KFL1 122024Z 32013KT 05/M04 A3023 RMK A01 T00471044  RH  052%=      5-min Rain = 0
KFL1 122025Z 31011G16KT 05/M04 A3023 RMK A01 T00461044  RH  052%=      5-min Rain = 0
KFL1 122026Z 31014KT 05/M05 A3023 RMK A01 T00461045  RH  052%=      5-min Rain = 0
KFL1 122027Z 31014KT 05/M05 A3023 RMK A01 T00451054  RH  048%=      5-min Rain = 0
KFL1 122028Z 31012KT 05/M06 A3023 RMK A01 T00461057  RH  047%=      5-min Rain = 0
KFL1 122029Z 31013KT 05/M05 A3023 RMK A01 T00471052  RH  049%=      5-min Rain = 0
KFL1 122030Z 30014KT 05/M05 A3022 RMK A01 T00471050  RH  049%=      5-min Rain = 0
KFL1 122031Z 30018KT 05/M05 A3022 RMK A01 T00461048  RH  051%=      5-min Rain = 0
KFL1 122032Z 31017KT 05/M05 A3022 RMK A01 T00451050  RH  050%=      5-min Rain = 0
KFL1 122033Z 30016KT 05/M05 A3022 RMK A01 T00451050  RH  050%=      5-min Rain = 0
KFL1 122034Z 29021KT 04/M05 A3022 RMK A01 T00441049  RH  051%=      5-min Rain = 0
KFL1 122035Z 29020KT 04/M05 A3022 RMK A01 T00441048  RH  051%=      5-min Rain = 0
KFL1 122036Z 31018G23KT 04/M05 A3022 RMK A01 T00431049  RH  051%=      5-min Rain = 0
KFL1 122037Z 30020G25KT 04/M05 A3022 RMK A01 T00421050  RH  051%=      5-min Rain = 0
KFL1 122038Z 30018KT 04/M05 A3022 RMK A01 T00431047  RH  052%=      5-min Rain = 0
KFL1 122039Z 30020KT 04/M05 A3022 RMK A01 T00431050  RH  051%=      5-min Rain = 0
KFL1 122040Z 31015G20KT 04/M05 A3022 RMK A01 T00431051  RH  050%=      5-min Rain = 0
KFL1 122041Z 31015G22KT 04/M05 A3023 RMK A01 T00431047  RH  052%=      5-min Rain = 0
KFL1 122042Z 30018KT 04/M05 A3023 RMK A01 T00431049  RH  051%=      5-min Rain = 0
KFL1 122043Z 30021G29KT 04/M05 A3023 RMK A01 T00431048  RH  051%=      5-min Rain = 0
KFL1 122044Z 30021KT 04/M05 A3023 RMK A01 T00421050  RH  051%=      5-min Rain = 0
KFL1 122045Z 31017G24KT 04/M05 A3023 RMK A01 T00421050  RH  051%=      5-min Rain = 0
KFL1 122046Z 30021G26KT 04/M05 A3023 RMK A01 T00411050  RH  052%=      5-min Rain = 0
KFL1 122047Z 30013G18KT 04/M05 A3023 RMK A01 T00421048  RH  052%=      5-min Rain = 0
KFL1 122048Z 30014KT 04/M05 A3023 RMK A01 T00421049  RH  052%=      5-min Rain = 0
KFL1 122049Z 29015KT 04/M05 A3022 RMK A01 T00431046  RH  052%=      5-min Rain = 0
KFL1 122050Z 30020G26KT 04/M04 A3022 RMK A01 T00441043  RH  053%=      5-min Rain = 0
KFL1 122051Z 30019G24KT 04/M05 A3023 RMK A01 T00441049  RH  051%=      5-min Rain = 0
KFL1 122052Z 30016G21KT 04/M05 A3022 RMK A01 T00441050  RH  050%=      5-min Rain = 0
KFL1 122053Z 30021KT 04/M05 A3023 RMK A01 T00441051  RH  050%=      5-min Rain = 0
KFL1 122054Z 31018G23KT 04/M05 A3022 RMK A01 T00441053  RH  049%=      5-min Rain = 0
KFL1 122055Z 30017G24KT 04/M05 A3023 RMK A01 T00441054  RH  049%=      5-min Rain = 0
KFL1 122056Z 31019KT 04/M05 A3022 RMK A01 T00441052  RH  050%=      5-min Rain = 0
KFL1 122057Z 31018KT 04/M05 A3022 RMK A01 T00441052  RH  050%=      5-min Rain = 0
KFL1 122058Z 31021G27KT 04/M05 A3022 RMK A01 T00441053  RH  049%=      5-min Rain = 0
KFL1 122059Z 31020KT 05/M05 A3023 RMK A01 T00461054  RH  048%=      5-min Rain = 0
KFL1 122100Z 31014KT 05/M06 A3023 RMK A01 T00451057  RH  048%=      5-min Rain = 0
KFL1 122101Z 31015KT 04/M06 A3023 RMK A01 T00441056  RH  048%=      5-min Rain = 0
KFL1 122102Z 30018KT 05/M06 A3023 RMK A01 T00451058  RH  047%=      5-min Rain = 0
KFL1 122103Z 30012KT 05/M06 A3023 RMK A01 T00461056  RH  047%=      5-min Rain = 0
KFL1 122104Z 32016G21KT 05/M05 A3023 RMK A01 T00461054  RH  048%=      5-min Rain = 0
KFL1 122105Z 32017KT 05/M06 A3023 RMK A01 T00471055  RH  048%=      5-min Rain = 0
KFL1 122106Z 32012KT 05/M06 A3023 RMK A01 T00461058  RH  047%=      5-min Rain = 0
KFL1 122107Z 31017KT 05/M06 A3023 RMK A01 T00451061  RH  046%=      5-min Rain = 0
KFL1 122108Z 32014KT 05/M06 A3023 RMK A01 T00461060  RH  046%=      5-min Rain = 0
KFL1 122109Z 32014KT 05/M06 A3023 RMK A01 T00471055  RH  048%=      5-min Rain = 0
KFL1 122110Z 32013G18KT 05/M06 A3023 RMK A01 T00471055  RH  048%=      5-min Rain = 0
KFL1 122111Z 32014KT 05/M06 A3023 RMK A01 T00491059  RH  046%=      5-min Rain = 0
KFL1 122112Z 33016KT 05/M06 A3023 RMK A01 T00481058  RH  046%=      5-min Rain = 0
KFL1 122113Z 31016KT 05/M06 A3023 RMK A01 T00481060  RH  045%=      5-min Rain = 0
KFL1 122114Z 34014KT 05/M06 A3023 RMK A01 T00461062  RH  045%=      5-min Rain = 0
KFL1 122115Z 33013KT 05/M06 A3023 RMK A01 T00451055  RH  048%=      5-min Rain = 0
KFL1 122116Z 32015G20KT 05/M06 A3023 RMK A01 T00461058  RH  047%=      5-min Rain = 0
KFL1 122117Z 32018KT 05/M06 A3023 RMK A01 T00481063  RH  045%=      5-min Rain = 0
KFL1 122118Z 33019G24KT 05/M07 A3023 RMK A01 T00481065  RH  044%=      5-min Rain = 0
KFL1 122119Z 34018KT 05/M07 A3023 RMK A01 T00471065  RH  044%=      5-min Rain = 0
KFL1 122120Z 33018KT 05/M07 A3023 RMK A01 T00451067  RH  044%=      5-min Rain = 0
KFL1 122121Z 34015KT 05/M07 A3023 RMK A01 T00451067  RH  044%=      5-min Rain = 0
KFL1 122122Z 32011KT 04/M06 A3023 RMK A01 T00441064  RH  045%=      5-min Rain = 0
KFL1 122123Z 32017G25KT 05/M07 A3023 RMK A01 T00461065  RH  044%=      5-min Rain = 0
KFL1 122124Z 32015KT 05/M07 A3023 RMK A01 T00461068  RH  043%=      5-min Rain = 0
KFL1 122125Z 32014KT 05/M07 A3023 RMK A01 T00471066  RH  044%=      5-min Rain = 0
KFL1 122126Z 33016KT 05/M07 A3023 RMK A01 T00461068  RH  043%=      5-min Rain = 0
KFL1 122127Z 33015KT 05/M06 A3023 RMK A01 T00461063  RH  045%=      5-min Rain = 0
KFL1 122128Z 33011KT 05/M06 A3023 RMK A01 T00461063  RH  045%=      5-min Rain = 0
KFL1 122129Z 32010G15KT 05/M06 A3023 RMK A01 T00451064  RH  045%=      5-min Rain = 0
KFL1 122130Z 34012KT 05/M06 A3024 RMK A01 T00461060  RH  046%=      5-min Rain = 0
KFL1 122131Z 34014KT 05/M06 A3024 RMK A01 T00481061  RH  045%=      5-min Rain = 0
KFL1 122132Z 33014KT 05/M07 A3024 RMK A01 T00471068  RH  043%=      5-min Rain = 0
KFL1 122133Z 31012KT 05/M07 A3024 RMK A01 T00471065  RH  044%=      5-min Rain = 0
KFL1 122134Z 31012KT 05/M07 A3024 RMK A01 T00471067  RH  043%=      5-min Rain = 0
KFL1 122135Z 32010KT 05/M07 A3024 RMK A01 T00491066  RH  043%=      5-min Rain = 0
KFL1 122136Z 31010KT 05/M06 A3024 RMK A01 T00481063  RH  044%=      5-min Rain = 0
KFL1 122137Z 32009KT 05/M06 A3024 RMK A01 T00491063  RH  044%=      5-min Rain = 0
KFL1 122138Z 31013KT 05/M06 A3024 RMK A01 T00491059  RH  045%=      5-min Rain = 0
KFL1 122139Z 31013KT 05/M06 A3024 RMK A01 T00501063  RH  044%=      5-min Rain = 0
KFL1 122140Z 33013KT 05/M06 A3024 RMK A01 T00501064  RH  044%=      5-min Rain = 0
KFL1 122141Z 33011G16KT 05/M07 A3024 RMK A01 T00491065  RH  043%=      5-min Rain = 0
KFL1 122142Z 32017KT 05/M07 A3024 RMK A01 T00471069  RH  043%=      5-min Rain = 0
KFL1 122143Z 35016G21KT 05/M06 A3024 RMK A01 T00461064  RH  044%=      5-min Rain = 0
KFL1 122144Z 34013G18KT 05/M06 A3024 RMK A01 T00471064  RH  044%=      5-min Rain = 0
KFL1 122145Z 33012G17KT 05/M07 A3024 RMK A01 T00461065  RH  044%=      5-min Rain = 0
KFL1 122146Z 34010KT 05/M06 A3024 RMK A01 T00451064  RH  045%=      5-min Rain = 0
KFL1 122147Z 33011G16KT 05/M06 A3024 RMK A01 T00471064  RH  044%=      5-min Rain = 0
KFL1 122148Z 32011KT 05/M06 A3024 RMK A01 T00481059  RH  046%=      5-min Rain = 0
KFL1 122149Z 32017G22KT 05/M06 A3024 RMK A01 T00481059  RH  046%=      5-min Rain = 0
KFL1 122150Z 32014G20KT 05/M07 A3024 RMK A01 T00481066  RH  043%=      5-min Rain = 0
KFL1 122151Z 33017KT 05/M07 A3024 RMK A01 T00481066  RH  043%=      5-min Rain = 0
KFL1 122152Z 33017KT 05/M06 A3025 RMK A01 T00471064  RH  044%=      5-min Rain = 0
KFL1 122153Z 34011KT 05/M07 A3025 RMK A01 T00461070  RH  043%=      5-min Rain = 0
KFL1 122154Z 34011KT 05/M07 A3025 RMK A01 T00451070  RH  043%=      5-min Rain = 0
KFL1 122155Z 34013G18KT 05/M07 A3025 RMK A01 T00451069  RH  043%=      5-min Rain = 0
KFL1 122156Z 35013KT 05/M06 A3025 RMK A01 T00471064  RH  045%=      5-min Rain = 0
KFL1 122157Z 34012KT 05/M06 A3025 RMK A01 T00471061  RH  045%=      5-min Rain = 0
KFL1 122158Z 34013G18KT 05/M06 A3025 RMK A01 T00471064  RH  045%=      5-min Rain = 0
KFL1 122159Z 33013KT 05/M07 A3025 RMK A01 T00471065  RH  044%=      5-min Rain = 0
KFL1 122200Z 33016G21KT 05/M06 A3025 RMK A01 T00461063  RH  045%=      5-min Rain = 0
KFL1 122201Z 32016KT 05/M07 A3025 RMK A01 T00461066  RH  044%=      5-min Rain = 0
KFL1 122202Z 33015KT 05/M07 A3025 RMK A01 T00451071  RH  043%=      5-min Rain = 0
KFL1 122203Z 32017KT 05/M07 A3025 RMK A01 T00461070  RH  043%=      5-min Rain = 0
KFL1 122204Z 33012G17KT 05/M07 A3025 RMK A01 T00461072  RH  042%=      5-min Rain = 0
KFL1 122205Z 34013KT 05/M07 A3025 RMK A01 T00461070  RH  043%=      5-min Rain = 0
KFL1 122206Z 32012KT 05/M07 A3025 RMK A01 T00451069  RH  043%=      5-min Rain = 0
KFL1 122207Z 31012KT 05/M07 A3025 RMK A01 T00471069  RH  043%=      5-min Rain = 0
KFL1 122208Z 31011KT 05/M07 A3025 RMK A01 T00481070  RH  042%=      5-min Rain = 0
KFL1 122209Z 31015KT 05/M07 A3025 RMK A01 T00481069  RH  043%=      5-min Rain = 0
KFL1 122210Z 31010G15KT 05/M07 A3025 RMK A01 T00481074  RH  041%=      5-min Rain = 0
KFL1 122211Z 31013KT 05/M07 A3025 RMK A01 T00471073  RH  041%=      5-min Rain = 0
KFL1 122212Z 32010KT 05/M07 A3025 RMK A01 T00471071  RH  042%=      5-min Rain = 0
KFL1 122213Z 32011KT 05/M07 A3025 RMK A01 T00471069  RH  043%=      5-min Rain = 0
KFL1 122214Z 30013KT 05/M07 A3025 RMK A01 T00461066  RH  044%=      5-min Rain = 0
KFL1 122215Z 31015KT 05/M07 A3025 RMK A01 T00451069  RH  043%=      5-min Rain = 0
KFL1 122216Z 32016KT 05/M07 A3025 RMK A01 T00451072  RH  042%=      5-min Rain = 0
KFL1 122217Z 32014KT 05/M07 A3025 RMK A01 T00451067  RH  044%=      5-min Rain = 0
KFL1 122218Z 33010KT 04/M07 A3025 RMK A01 T00441067  RH  044%=      5-min Rain = 0
KFL1 122219Z 32011KT 04/M07 A3025 RMK A01 T00431068  RH  044%=      5-min Rain = 0
KFL1 122220Z 31012KT 04/M06 A3025 RMK A01 T00441064  RH  045%=      5-min Rain = 0
KFL1 122221Z 32011KT 04/M07 A3025 RMK A01 T00431069  RH  044%=      5-min Rain = 0
KFL1 122222Z 32012KT 05/M06 A3025 RMK A01 T00461064  RH  045%=      5-min Rain = 0
KFL1 122223Z 32011KT 04/M06 A3025 RMK A01 T00441064  RH  045%=      5-min Rain = 0
KFL1 122224Z 33011KT 04/M07 A3025 RMK A01 T00441069  RH  044%=      5-min Rain = 0
KFL1 122225Z 32011KT 04/M07 A3025 RMK A01 T00441066  RH  045%=      5-min Rain = 0
KFL1 122226Z 31011KT 04/M07 A3026 RMK A01 T00441069  RH  043%=      5-min Rain = 0
KFL1 122227Z 32012KT 04/M07 A3026 RMK A01 T00441067  RH  044%=      5-min Rain = 0
KFL1 122228Z 32013KT 05/M07 A3026 RMK A01 T00451066  RH  044%=      5-min Rain = 0
KFL1 122229Z 33014KT 05/M07 A3026 RMK A01 T00451067  RH  044%=      5-min Rain = 0
KFL1 122230Z 33013KT 04/M06 A3026 RMK A01 T00431063  RH  046%=      5-min Rain = 0
KFL1 122231Z 33010KT 04/M07 A3026 RMK A01 T00411066  RH  046%=      5-min Rain = 0
KFL1 122232Z 31011G17KT 04/M06 A3026 RMK A01 T00431064  RH  046%=      5-min Rain = 0
KFL1 122233Z 32013KT 04/M07 A3026 RMK A01 T00421066  RH  045%=      5-min Rain = 0
KFL1 122234Z 32010KT 04/M07 A3026 RMK A01 T00421067  RH  045%=      5-min Rain = 0
KFL1 122235Z 32011KT 04/M06 A3026 RMK A01 T00421063  RH  046%=      5-min Rain = 0
KFL1 122236Z 31010KT 04/M07 A3026 RMK A01 T00431065  RH  045%=      5-min Rain = 0
KFL1 122237Z 30010G16KT 04/M06 A3026 RMK A01 T00441062  RH  046%=      5-min Rain = 0
KFL1 122238Z 32013KT 04/M07 A3026 RMK A01 T00431068  RH  044%=      5-min Rain = 0
KFL1 122239Z 31015KT 04/M07 A3026 RMK A01 T00421069  RH  044%=      5-min Rain = 0
KFL1 122240Z 31016KT 04/M07 A3026 RMK A01 T00431070  RH  044%=      5-min Rain = 0
KFL1 122241Z 30014KT 04/M07 A3026 RMK A01 T00421071  RH  044%=      5-min Rain = 0
KFL1 122242Z 31011KT 04/M07 A3026 RMK A01 T00421072  RH  043%=      5-min Rain = 0
KFL1 122243Z 32008KT 04/M07 A3027 RMK A01 T00421067  RH  045%=      5-min Rain = 0
KFL1 122244Z 32010KT 04/M06 A3027 RMK A01 T00421062  RH  047%=      5-min Rain = 0
KFL1 122245Z 32010KT 04/M06 A3027 RMK A01 T00431062  RH  046%=      5-min Rain = 0
KFL1 122246Z 31014KT 04/M06 A3026 RMK A01 T00431064  RH  045%=      5-min Rain = 0
KFL1 122247Z 32014KT 04/M07 A3026 RMK A01 T00421068  RH  045%=      5-min Rain = 0
KFL1 122248Z 31011G18KT 04/M07 A3027 RMK A01 T00421069  RH  044%=      5-min Rain = 0
KFL1 122249Z 31010KT 04/M07 A3027 RMK A01 T00411073  RH  043%=      5-min Rain = 0
KFL1 122250Z 30009KT 04/M07 A3027 RMK A01 T00421068  RH  045%=      5-min Rain = 0
KFL1 122251Z 30011KT 04/M07 A3027 RMK A01 T00431069  RH  044%=      5-min Rain = 0
KFL1 122252Z 31014KT 04/M07 A3026 RMK A01 T00421069  RH  044%=      5-min Rain = 0
KFL1 122253Z 31011KT 04/M07 A3027 RMK A01 T00431070  RH  044%=      5-min Rain = 0
KFL1 122254Z 30011KT 04/M07 A3027 RMK A01 T00421070  RH  044%=      5-min Rain = 0
KFL1 122255Z 30010KT 04/M07 A3027 RMK A01 T00431070  RH  044%=      5-min Rain = 0
KFL1 122256Z 30009KT 04/M07 A3027 RMK A01 T00421072  RH  043%=      5-min Rain = 0
KFL1 122257Z 31010KT 04/M07 A3027 RMK A01 T00421071  RH  044%=      5-min Rain = 0
KFL1 122258Z 31012KT 04/M07 A3027 RMK A01 T00421071  RH  044%=      5-min Rain = 0
KFL1 122259Z 31011KT 04/M07 A3027 RMK A01 T00421072  RH  043%=      5-min Rain = 0
KFL1 122300Z 31010KT 04/M07 A3027 RMK A01 T00421071  RH  043%=      5-min Rain = 0
KFL1 122301Z 30012KT 04/M07 A3027 RMK A01 T00421070  RH  044%=      5-min Rain = 0
KFL1 122302Z 31011KT 04/M07 A3027 RMK A01 T00421070  RH  044%=      5-min Rain = 0
KFL1 122303Z 31010KT 04/M07 A3027 RMK A01 T00421070  RH  044%=      5-min Rain = 0
KFL1 122304Z 32011KT 04/M07 A3027 RMK A01 T00421071  RH  044%=      5-min Rain = 0
KFL1 122305Z 31008G13KT 04/M07 A3027 RMK A01 T00411069  RH  045%=      5-min Rain = 0
KFL1 122306Z 31010G16KT 04/M06 A3027 RMK A01 T00421064  RH  046%=      5-min Rain = 0
KFL1 122307Z 31011KT 04/M06 A3027 RMK A01 T00401063  RH  047%=      5-min Rain = 0
KFL1 122308Z 31011KT 04/M07 A3027 RMK A01 T00391069  RH  045%=      5-min Rain = 0
KFL1 122309Z 30012KT 04/M07 A3027 RMK A01 T00401068  RH  045%=      5-min Rain = 0
KFL1 122310Z 30013KT 04/M07 A3027 RMK A01 T00401071  RH  044%=      5-min Rain = 0
KFL1 122311Z 31013KT 04/M07 A3027 RMK A01 T00391067  RH  046%=      5-min Rain = 0
KFL1 122312Z 31011KT 04/M07 A3027 RMK A01 T00391066  RH  046%=      5-min Rain = 0
KFL1 122313Z 31013KT 04/M07 A3027 RMK A01 T00391066  RH  046%=      5-min Rain = 0
KFL1 122314Z 31011KT 04/M07 A3027 RMK A01 T00381065  RH  047%=      5-min Rain = 0
KFL1 122315Z 30009G14KT 04/M07 A3027 RMK A01 T00391067  RH  046%=      5-min Rain = 0
KFL1 122316Z 30013KT 04/M07 A3027 RMK A01 T00371066  RH  047%=      5-min Rain = 0
KFL1 122317Z 31013KT 04/M07 A3027 RMK A01 T00391066  RH  046%=      5-min Rain = 0
KFL1 122318Z 31014KT 04/M07 A3027 RMK A01 T00381067  RH  046%=      5-min Rain = 0
KFL1 122319Z 31013KT 04/M07 A3027 RMK A01 T00381067  RH  046%=      5-min Rain = 0
KFL1 122320Z 32012KT 04/M07 A3027 RMK A01 T00371068  RH  046%=      5-min Rain = 0
KFL1 122321Z 31011KT 04/M06 A3027 RMK A01 T00371064  RH  047%=      5-min Rain = 0
KFL1 122322Z 31010KT 04/M07 A3028 RMK A01 T00361066  RH  047%=      5-min Rain = 0
KFL1 122323Z 31008KT 04/M07 A3028 RMK A01 T00361065  RH  048%=      5-min Rain = 0
KFL1 122324Z 30012KT 04/M06 A3028 RMK A01 T00361062  RH  049%=      5-min Rain = 0
KFL1 122325Z 31012KT 04/M06 A3028 RMK A01 T00361063  RH  048%=      5-min Rain = 0
KFL1 122326Z 31010KT 04/M06 A3028 RMK A01 T00371063  RH  048%=      5-min Rain = 0
KFL1 122327Z 30009KT 04/M07 A3028 RMK A01 T00371066  RH  047%=      5-min Rain = 0
KFL1 122328Z 30009KT 04/M07 A3028 RMK A01 T00351066  RH  047%=      5-min Rain = 0
KFL1 122329Z 30008KT 04/M07 A3028 RMK A01 T00351065  RH  048%=      5-min Rain = 0
KFL1 122330Z 31011KT 04/M06 A3028 RMK A01 T00361063  RH  048%=      5-min Rain = 0
KFL1 122331Z 30010KT 04/M06 A3028 RMK A01 T00371064  RH  048%=      5-min Rain = 0
KFL1 122332Z 30009G14KT 04/M06 A3028 RMK A01 T00351063  RH  049%=      5-min Rain = 0
KFL1 122333Z 30009KT 04/M06 A3028 RMK A01 T00361061  RH  049%=      5-min Rain = 0
KFL1 122334Z 30010KT 03/M06 A3028 RMK A01 T00341062  RH  049%=      5-min Rain = 0
KFL1 122335Z 30012KT 03/M06 A3028 RMK A01 T00341061  RH  050%=      5-min Rain = 0
KFL1 122336Z 30010KT 03/M06 A3028 RMK A01 T00341057  RH  051%=      5-min Rain = 0
KFL1 122337Z 30011KT 03/M06 A3028 RMK A01 T00321060  RH  051%=      5-min Rain = 0
KFL1 122338Z 30012KT 03/M06 A3027 RMK A01 T00321061  RH  050%=      5-min Rain = 0
KFL1 122339Z 30014KT 03/M06 A3027 RMK A01 T00321064  RH  050%=      5-min Rain = 0
KFL1 122340Z 30011KT 03/M07 A3027 RMK A01 T00321065  RH  049%=      5-min Rain = 0
KFL1 122341Z 30010KT 03/M06 A3028 RMK A01 T00321062  RH  050%=      5-min Rain = 0
KFL1 122342Z 30008KT 03/M06 A3028 RMK A01 T00331064  RH  049%=      5-min Rain = 0
KFL1 122343Z 31011KT 03/M06 A3028 RMK A01 T00331064  RH  049%=      5-min Rain = 0
KFL1 122344Z 30012KT 03/M06 A3028 RMK A01 T00321063  RH  050%=      5-min Rain = 0
KFL1 122345Z 31011KT 03/M06 A3028 RMK A01 T00311063  RH  050%=      5-min Rain = 0
KFL1 122346Z 31011KT 03/M06 A3028 RMK A01 T00321062  RH  050%=      5-min Rain = 0
KFL1 122347Z 31008KT 03/M06 A3028 RMK A01 T00311063  RH  050%=      5-min Rain = 0
KFL1 122348Z 31012KT 03/M06 A3028 RMK A01 T00301063  RH  050%=      5-min Rain = 0
KFL1 122349Z 31011KT 03/M06 A3028 RMK A01 T00311062  RH  050%=      5-min Rain = 0
KFL1 122350Z 31012KT 03/M06 A3028 RMK A01 T00301064  RH  050%=      5-min Rain = 0
KFL1 122351Z 31009KT 03/M06 A3028 RMK A01 T00311063  RH  050%=      5-min Rain = 0
KFL1 122352Z 30010KT 03/M06 A3028 RMK A01 T00291063  RH  051%=      5-min Rain = 0
KFL1 122353Z 30011KT 03/M06 A3028 RMK A01 T00291063  RH  051%=      5-min Rain = 0
KFL1 122354Z 31012KT 03/M06 A3029 RMK A01 T00281063  RH  051%=      5-min Rain = 0
KFL1 122355Z 30010KT 03/M06 A3029 RMK A01 T00281063  RH  051%=      5-min Rain = 0
KFL1 122356Z 30008KT 03/M06 A3029 RMK A01 T00281063  RH  051%=      5-min Rain = 0
KFL1 122357Z 31009KT 03/M06 A3029 RMK A01 T00271062  RH  052%=      5-min Rain = 0
KFL1 122358Z 31008KT 03/M06 A3029 RMK A01 T00271063  RH  052%=      5-min Rain = 0
KFL1 122359Z 31010KT 03/M06 A3029 RMK A01 T00271061  RH  052%=      5-min Rain = 0
KFL1 130000Z 30009KT 03/M06 A3029 RMK A01 T00251063  RH  052%=      5-min Rain = 0
KFL1 130001Z 31009KT 03/M07 A3029 RMK A01 T00251065  RH  052%=      5-min Rain = 0
KFL1 130002Z 31008KT 03/M07 A3029 RMK A01 T00251065  RH  051%=      5-min Rain = 0
KFL1 130003Z 31009KT 03/M06 A3029 RMK A01 T00281063  RH  051%=      5-min Rain = 0
KFL1 130004Z 31008KT 03/M07 A3029 RMK A01 T00271065  RH  051%=      5-min Rain = 0
KFL1 130005Z 31008KT 03/M07 A3029 RMK A01 T00261065  RH  051%=      5-min Rain = 0
KFL1 130006Z 31007KT 03/M07 A3029 RMK A01 T00251065  RH  052%=      5-min Rain = 0
KFL1 130007Z 31006KT 03/M06 A3029 RMK A01 T00251063  RH  052%=      5-min Rain = 0
KFL1 130008Z 30007KT 02/M06 A3029 RMK A01 T00221064  RH  053%=      5-min Rain = 0
KFL1 130009Z 31008KT 02/M06 A3029 RMK A01 T00221063  RH  053%=      5-min Rain = 0
KFL1 130010Z 30008KT 02/M06 A3029 RMK A01 T00211063  RH  053%=      5-min Rain = 0
KFL1 130011Z 30009KT 02/M06 A3029 RMK A01 T00211061  RH  054%=      5-min Rain = 0
KFL1 130012Z 30006KT 02/M06 A3029 RMK A01 T00211061  RH  055%=      5-min Rain = 0
KFL1 130013Z 30007KT 02/M06 A3029 RMK A01 T00181062  RH  055%=      5-min Rain = 0
KFL1 130014Z 31009KT 02/M06 A3029 RMK A01 T00181062  RH  056%=      5-min Rain = 0
KFL1 130015Z 31009KT 02/M06 A3029 RMK A01 T00161062  RH  056%=      5-min Rain = 0
KFL1 130016Z 31010KT 02/M06 A3029 RMK A01 T00171061  RH  056%=      5-min Rain = 0
KFL1 130017Z 30014KT 02/M06 A3029 RMK A01 T00171061  RH  056%=      5-min Rain = 0
KFL1 130018Z 31010KT 02/M06 A3029 RMK A01 T00171061  RH  056%=      5-min Rain = 0
KFL1 130019Z 31009KT 02/M06 A3029 RMK A01 T00181061  RH  056%=      5-min Rain = 0
KFL1 130020Z 31014KT 02/M06 A3029 RMK A01 T00181060  RH  056%=      5-min Rain = 0
KFL1 130021Z 32015KT 02/M06 A3029 RMK A01 T00171061  RH  056%=      5-min Rain = 0
KFL1 130022Z 31012KT 02/M06 A3029 RMK A01 T00171061  RH  056%=      5-min Rain = 0
KFL1 130023Z 31010KT 02/M06 A3029 RMK A01 T00171062  RH  056%=      5-min Rain = 0
KFL1 130024Z 31008KT 02/M06 A3029 RMK A01 T00191060  RH  056%=      5-min Rain = 0
KFL1 130025Z 33008KT 02/M06 A3029 RMK A01 T00181060  RH  056%=      5-min Rain = 0
KFL1 130026Z 32010KT 02/M06 A3029 RMK A01 T00161061  RH  057%=      5-min Rain = 0
KFL1 130027Z 32011KT 02/M06 A3029 RMK A01 T00151062  RH  057%=      5-min Rain = 0
KFL1 130028Z 32010KT 01/M06 A3029 RMK A01 T00141062  RH  057%=      5-min Rain = 0
KFL1 130029Z 31011KT 02/M06 A3029 RMK A01 T00151060  RH  058%=      5-min Rain = 0
KFL1 130030Z 31009KT 01/M06 A3029 RMK A01 T00131061  RH  057%=      5-min Rain = 0
KFL1 130031Z 31012KT 02/M06 A3029 RMK A01 T00151060  RH  057%=      5-min Rain = 0
KFL1 130032Z 31011KT 01/M06 A3029 RMK A01 T00141061  RH  057%=      5-min Rain = 0
KFL1 130033Z 32012KT 01/M06 A3029 RMK A01 T00141061  RH  057%=      5-min Rain = 0
KFL1 130034Z 32011KT 01/M06 A3029 RMK A01 T00141060  RH  058%=      5-min Rain = 0
KFL1 130035Z 31010KT 01/M06 A3029 RMK A01 T00121060  RH  058%=      5-min Rain = 0
KFL1 130036Z 33006KT 01/M06 A3029 RMK A01 T00131060  RH  058%=      5-min Rain = 0
KFL1 130037Z 32006KT 01/M06 A3029 RMK A01 T00131061  RH  058%=      5-min Rain = 0
KFL1 130038Z 32009KT 01/M06 A3029 RMK A01 T00121060  RH  058%=      5-min Rain = 0
KFL1 130039Z 31008KT 01/M06 A3029 RMK A01 T00111061  RH  059%=      5-min Rain = 0
KFL1 130040Z 31009KT 01/M06 A3029 RMK A01 T00101062  RH  059%=      5-min Rain = 0
KFL1 130041Z 31008KT 01/M06 A3029 RMK A01 T00101061  RH  059%=      5-min Rain = 0
KFL1 130042Z 31009KT 01/M06 A3029 RMK A01 T00101062  RH  059%=      5-min Rain = 0
KFL1 130043Z 31010KT 01/M06 A3029 RMK A01 T00121061  RH  058%=      5-min Rain = 0
KFL1 130044Z 31009KT 01/M06 A303 RMK A01 T00121061  RH  058%=      5-min Rain = 0
KFL1 130045Z 31009KT 01/M06 A303 RMK A01 T00111062  RH  058%=      5-min Rain = 0
KFL1 130046Z 31009KT 01/M06 A303 RMK A01 T00111062  RH  058%=      5-min Rain = 0
KFL1 130047Z 31009KT 01/M06 A303 RMK A01 T00111062  RH  059%=      5-min Rain = 0
KFL1 130048Z 30009KT 01/M06 A303 RMK A01 T00101063  RH  058%=      5-min Rain = 0
KFL1 130049Z 30008KT 01/M06 A303 RMK A01 T00101061  RH  059%=      5-min Rain = 0
KFL1 130050Z 30009KT 01/M06 A303 RMK A01 T00091062  RH  059%=      5-min Rain = 0
KFL1 130051Z 30009KT 01/M06 A303 RMK A01 T00091061  RH  059%=      5-min Rain = 0
KFL1 130052Z 31009KT 01/M06 A303 RMK A01 T00091061  RH  060%=      5-min Rain = 0
KFL1 130053Z 31009KT 01/M06 A303 RMK A01 T00081061  RH  060%=      5-min Rain = 0
KFL1 130054Z 31008KT 01/M06 A303 RMK A01 T00091061  RH  059%=      5-min Rain = 0
KFL1 130055Z 31006KT 01/M06 A3031 RMK A01 T00091061  RH  059%=      5-min Rain = 0
KFL1 130056Z 31008KT 01/M06 A3031 RMK A01 T00071062  RH  060%=      5-min Rain = 0
KFL1 130057Z 31007KT 01/M06 A3031 RMK A01 T00061063  RH  060%=      5-min Rain = 0
KFL1 130058Z 32006KT 01/M06 A303 RMK A01 T00071062  RH  060%=      5-min Rain = 0
KFL1 130059Z 32007KT 01/M06 A303 RMK A01 T00071062  RH  060%=      5-min Rain = 0
KFL1 130100Z 32009KT 01/M06 A303 RMK A01 T00061062  RH  060%=      5-min Rain = 0
KFL1 130101Z 32008KT 01/M06 A303 RMK A01 T00051063  RH  060%=      5-min Rain = 0
KFL1 130102Z 33008KT 01/M06 A303 RMK A01 T00051063  RH  060%=      5-min Rain = 0
KFL1 130103Z 33009KT 01/M06 A303 RMK A01 T00061063  RH  060%=      5-min Rain = 0
KFL1 130104Z 34010KT 01/M06 A303 RMK A01 T00061064  RH  060%=      5-min Rain = 0
KFL1 130105Z 34009KT 01/M06 A303 RMK A01 T00071063  RH  059%=      5-min Rain = 0
KFL1 130106Z 34008KT 01/M07 A303 RMK A01 T00061065  RH  059%=      5-min Rain = 0
KFL1 130107Z 35007KT 01/M07 A303 RMK A01 T00081065  RH  058%=      5-min Rain = 0
KFL1 130108Z 35007KT 01/M06 A303 RMK A01 T00081064  RH  059%=      5-min Rain = 0
KFL1 130109Z 35007KT 00/M07 A303 RMK A01 T00031066  RH  060%=      5-min Rain = 0
KFL1 130110Z 34006KT 00/07 A303 RMK A01 T00-00-67  RH  061%=      5-min Rain = 0
KFL1 130111Z 34007KT M00/M07 A303 RMK A01 T10021067  RH  062%=      5-min Rain = 0
KFL1 130112Z 33007KT M00/M07 A303 RMK A01 T10031067  RH  062%=      5-min Rain = 0
KFL1 130113Z 33007KT M00/M07 A303 RMK A01 T10041067  RH  062%=      5-min Rain = 0
KFL1 130114Z 33007KT M00/M07 A303 RMK A01 T10021066  RH  062%=      5-min Rain = 0
KFL1 130115Z 33007KT M00/M07 A303 RMK A01 T10041068  RH  062%=      5-min Rain = 0
KFL1 130116Z 33008KT M00/M07 A303 RMK A01 T10041068  RH  062%=      5-min Rain = 0
KFL1 130117Z 33008KT M01/M07 A303 RMK A01 T10051069  RH  062%=      5-min Rain = 0
KFL1 130118Z 34007KT M00/M07 A3031 RMK A01 T10041068  RH  062%=      5-min Rain = 0
KFL1 130119Z 34007KT M00/M07 A3031 RMK A01 T10041069  RH  062%=      5-min Rain = 0
KFL1 130120Z 35007KT M00/M07 A3031 RMK A01 T10041069  RH  061%=      5-min Rain = 0
KFL1 130121Z 02006KT M00/M07 A3031 RMK A01 T10021068  RH  061%=      5-min Rain = 0
KFL1 130122Z 04005KT M01/M07 A3031 RMK A01 T10051070  RH  061%=      5-min Rain = 0
KFL1 130123Z 03007KT M01/M07 A3031 RMK A01 T10051069  RH  062%=      5-min Rain = 0
KFL1 130124Z 03006KT M01/M07 A3031 RMK A01 T10051068  RH  062%=      5-min Rain = 0
KFL1 130125Z 04006KT M00/M07 A3031 RMK A01 T10021068  RH  061%=      5-min Rain = 0
KFL1 130126Z 02007KT M00/M07 A3031 RMK A01 T10011069  RH  060%=      5-min Rain = 0
KFL1 130127Z 01008KT 00/M07 A3031 RMK A01 T00011069  RH  059%=      5-min Rain = 0
KFL1 130128Z 01007KT 00/M07 A3031 RMK A01 T00011071  RH  058%=      5-min Rain = 0
KFL1 130129Z 01008KT M01/M08 A3031 RMK A01 T10081077  RH  060%=      5-min Rain = 0
KFL1 130130Z 02006KT M01/M08 A3031 RMK A01 T10121075  RH  062%=      5-min Rain = 0
KFL1 130131Z 05005KT M01/M07 A3031 RMK A01 T10101072  RH  063%=      5-min Rain = 0
KFL1 130132Z 04004KT M01/M07 A3031 RMK A01 T10081072  RH  062%=      5-min Rain = 0
KFL1 130133Z 02004KT M01/M07 A3032 RMK A01 T10051070  RH  061%=      5-min Rain = 0
KFL1 130134Z 03005KT M01/M07 A3032 RMK A01 T10051072  RH  061%=      5-min Rain = 0
KFL1 130135Z 04005KT M00/M07 A3032 RMK A01 T10031071  RH  060%=      5-min Rain = 0
KFL1 130136Z 02004KT M00/M07 A3032 RMK A01 T10041072  RH  060%=      5-min Rain = 0
KFL1 130137Z 04004KT M01/M07 A3031 RMK A01 T10071074  RH  060%=      5-min Rain = 0
KFL1 130138Z 03005KT M01/M07 A3031 RMK A01 T10071073  RH  061%=      5-min Rain = 0
KFL1 130139Z 02006KT M01/M07 A3031 RMK A01 T10091074  RH  061%=      5-min Rain = 0
KFL1 130140Z 03006KT M01/M08 A3031 RMK A01 T10121076  RH  062%=      5-min Rain = 0
KFL1 130141Z 04005KT M02/M08 A3031 RMK A01 T10161079  RH  062%=      5-min Rain = 0
KFL1 130142Z 03005KT M02/M08 A3031 RMK A01 T10171077  RH  063%=      5-min Rain = 0
KFL1 130143Z 04004KT M01/M07 A3031 RMK A01 T10121073  RH  063%=      5-min Rain = 0
KFL1 130144Z 03004KT M01/M07 A3031 RMK A01 T10081072  RH  062%=      5-min Rain = 0
KFL1 130145Z 05004KT M01/M07 A3031 RMK A01 T10061072  RH  061%=      5-min Rain = 0
KFL1 130146Z 07002KT M01/M07 A3031 RMK A01 T10061074  RH  060%=      5-min Rain = 0
KFL1 130147Z 06003KT M01/M08 A3031 RMK A01 T10121079  RH  060%=      5-min Rain = 0
KFL1 130148Z 04003KT M02/M08 A3031 RMK A01 T10171080  RH  062%=      5-min Rain = 0
KFL1 130149Z 02004KT M02/M08 A3031 RMK A01 T10181077  RH  064%=      5-min Rain = 0
KFL1 130150Z 01004KT M02/M08 A3031 RMK A01 T10181075  RH  065%=      5-min Rain = 0
KFL1 130151Z 01003KT M02/M08 A3031 RMK A01 T10171075  RH  064%=      5-min Rain = 0
KFL1 130152Z 01002KT M02/M08 A3031 RMK A01 T10171078  RH  063%=      5-min Rain = 0
KFL1 130153Z 13002KT M02/M08 A3031 RMK A01 T10201079  RH  064%=      5-min Rain = 0
KFL1 130154Z 10002KT M02/M08 A3032 RMK A01 T10201077  RH  065%=      5-min Rain = 0
KFL1 130155Z 08003KT M02/M08 A3032 RMK A01 T10221076  RH  066%=      5-min Rain = 0
KFL1 130156Z 05002KT M02/M07 A3032 RMK A01 T10201074  RH  066%=      5-min Rain = 0
KFL1 130157Z 03001KT M02/M08 A3032 RMK A01 T10201076  RH  066%=      5-min Rain = 0
KFL1 130158Z 02001KT M02/M08 A3032 RMK A01 T10211076  RH  066%=      5-min Rain = 0
KFL1 130159Z 02004KT M02/M08 A3032 RMK A01 T10211076  RH  066%=      5-min Rain = 0
KFL1 130200Z 03005KT M02/M08 A3032 RMK A01 T10241079  RH  066%=      5-min Rain = 0
KFL1 130201Z 04005KT M02/M08 A3032 RMK A01 T10241077  RH  067%=      5-min Rain = 0
KFL1 130202Z 05005KT M03/M08 A3032 RMK A01 T10261077  RH  068%=      5-min Rain = 0
KFL1 130203Z 11003KT M02/M07 A3032 RMK A01 T10221074  RH  067%=      5-min Rain = 0
KFL1 130204Z 12003KT M02/M08 A3032 RMK A01 T10241077  RH  067%=      5-min Rain = 0
KFL1 130205Z 11003KT M03/M08 A3032 RMK A01 T10251076  RH  068%=      5-min Rain = 0
KFL1 130206Z 10003KT M02/M07 A3032 RMK A01 T10231074  RH  068%=      5-min Rain = 0
KFL1 130207Z 11003KT M02/M07 A3032 RMK A01 T10221074  RH  068%=      5-min Rain = 0
KFL1 130208Z 11003KT M02/M07 A3032 RMK A01 T10211074  RH  067%=      5-min Rain = 0
KFL1 130209Z 12002KT M02/M07 A3032 RMK A01 T10201074  RH  067%=      5-min Rain = 0
KFL1 130210Z 12002KT M02/M07 A3032 RMK A01 T10191073  RH  066%=      5-min Rain = 0
KFL1 130211Z 12002KT M02/M07 A3032 RMK A01 T10191074  RH  066%=      5-min Rain = 0
KFL1 130212Z 11001KT M02/M07 A3032 RMK A01 T10201074  RH  066%=      5-min Rain = 0
KFL1 130213Z 08001KT M02/M07 A3032 RMK A01 T10171072  RH  066%=      5-min Rain = 0
KFL1 130214Z 09002KT M02/M07 A3032 RMK A01 T10151072  RH  065%=      5-min Rain = 0
KFL1 130215Z 07003KT M01/M07 A3032 RMK A01 T10121071  RH  064%=      5-min Rain = 0
KFL1 130216Z 04003KT M01/M07 A3032 RMK A01 T10131074  RH  063%=      5-min Rain = 0
KFL1 130217Z 05003KT M02/M08 A3032 RMK A01 T10171077  RH  063%=      5-min Rain = 0
KFL1 130218Z 07002KT M02/M08 A3032 RMK A01 T10191077  RH  064%=      5-min Rain = 0
KFL1 130219Z 07004KT M02/M08 A3032 RMK A01 T10191076  RH  065%=      5-min Rain = 0
KFL1 130220Z 06004KT M02/M08 A3032 RMK A01 T10191075  RH  065%=      5-min Rain = 0
KFL1 130221Z 06004KT M02/M07 A3032 RMK A01 T10181074  RH  066%=      5-min Rain = 0
KFL1 130222Z 07004KT M02/M08 A3032 RMK A01 T10201075  RH  066%=      5-min Rain = 0
KFL1 130223Z 08004KT M02/M07 A3033 RMK A01 T10201074  RH  066%=      5-min Rain = 0
KFL1 130224Z 08003KT M02/M08 A3033 RMK A01 T10211075  RH  066%=      5-min Rain = 0
KFL1 130225Z 09002KT M02/M07 A3033 RMK A01 T10201074  RH  067%=      5-min Rain = 0
KFL1 130226Z 11001KT M02/M08 A3033 RMK A01 T10201075  RH  066%=      5-min Rain = 0
KFL1 130227Z 11001KT M02/M08 A3033 RMK A01 T10201075  RH  066%=      5-min Rain = 0
KFL1 130228Z 12000KT M02/M08 A3033 RMK A01 T10181075  RH  065%=      5-min Rain = 0
KFL1 130229Z 00000KT M02/M08 A3033 RMK A01 T10171075  RH  065%=      5-min Rain = 0
KFL1 130230Z 00000KT M02/M08 A3033 RMK A01 T10181079  RH  063%=      5-min Rain = 0
KFL1 130231Z 02000KT M03/M09 A3033 RMK A01 T10321093  RH  063%=      5-min Rain = 0
KFL1 130232Z 00004KT M04/M09 A3034 RMK A01 T10381090  RH  067%=      5-min Rain = 0
KFL1 130233Z 01005KT M04/M09 A3034 RMK A01 T10441091  RH  070%=      5-min Rain = 0
KFL1 130234Z 03003KT M05/M09 A3034 RMK A01 T10471090  RH  072%=      5-min Rain = 0
KFL1 130235Z 04001KT M05/M09 A3034 RMK A01 T10491089  RH  074%=      5-min Rain = 0
KFL1 130236Z 14000KT M05/M09 A3034 RMK A01 T10491086  RH  075%=      5-min Rain = 0
KFL1 130237Z 12000KT M05/M09 A3034 RMK A01 T10491086  RH  075%=      5-min Rain = 0
KFL1 130238Z 13001KT M05/M09 A3034 RMK A01 T10481086  RH  075%=      5-min Rain = 0
KFL1 130239Z 16001KT M04/M08 A3034 RMK A01 T10441079  RH  076%=      5-min Rain = 0
KFL1 130240Z 15001KT M04/M08 A3034 RMK A01 T10391078  RH  074%=      5-min Rain = 0
KFL1 130241Z 14001KT M04/M08 A3034 RMK A01 T10391082  RH  072%=      5-min Rain = 0
KFL1 130242Z 14001KT M04/M09 A3034 RMK A01 T10391085  RH  070%=      5-min Rain = 0
KFL1 130243Z 14001KT M05/M10 A3034 RMK A01 T10481097  RH  069%=      5-min Rain = 0
KFL1 130244Z 12001KT M06/M10 A3035 RMK A01 T10551100  RH  070%=      5-min Rain = 0
KFL1 130245Z 13000KT M06/M10 A3035 RMK A01 T10591099  RH  074%=      5-min Rain = 0
KFL1 130246Z 00000KT M06/M10 A3035 RMK A01 T10611097  RH  076%=      5-min Rain = 0
KFL1 130247Z 00000KT M07/M10 A3035 RMK A01 T10651099  RH  077%=      5-min Rain = 0
KFL1 130248Z 00000KT M07/M10 A3035 RMK A01 T10681101  RH  078%=      5-min Rain = 0
KFL1 130249Z 00000KT M07/M10 A3035 RMK A01 T10701100  RH  079%=      5-min Rain = 0
KFL1 130250Z 00000KT M07/M10 A3035 RMK A01 T10721100  RH  081%=      5-min Rain = 0
KFL1 130251Z 00000KT M08/M10 A3035 RMK A01 T10751100  RH  082%=      5-min Rain = 0
KFL1 130252Z 00000KT M07/M09 A3035 RMK A01 T10711094  RH  084%=      5-min Rain = 0
KFL1 130253Z 19001KT M07/M09 A3035 RMK A01 T10681090  RH  084%=      5-min Rain = 0
KFL1 130254Z 18001KT M07/M09 A3035 RMK A01 T10661091  RH  083%=      5-min Rain = 0
KFL1 130255Z 18001KT M06/M09 A3035 RMK A01 T10641090  RH  082%=      5-min Rain = 0
KFL1 130256Z 15001KT M06/M08 A3035 RMK A01 T10581084  RH  082%=      5-min Rain = 0
KFL1 130257Z 16001KT M05/M08 A3035 RMK A01 T10531084  RH  079%=      5-min Rain = 0
KFL1 130258Z 17001KT M05/M08 A3035 RMK A01 T10511083  RH  078%=      5-min Rain = 0
KFL1 130259Z 18001KT M05/M08 A3035 RMK A01 T10461079  RH  077%=      5-min Rain = 0
KFL1 130300Z 15001KT M04/M08 A3035 RMK A01 T10401076  RH  076%=      5-min Rain = 0
KFL1 130301Z 12001KT M04/M08 A3035 RMK A01 T10351076  RH  073%=      5-min Rain = 0
KFL1 130302Z 11001KT M03/M08 A3035 RMK A01 T10331076  RH  072%=      5-min Rain = 0
KFL1 130303Z 10001KT M03/M08 A3035 RMK A01 T10331077  RH  071%=      5-min Rain = 0
KFL1 130304Z 07001KT M03/M08 A3035 RMK A01 T10331080  RH  069%=      5-min Rain = 0
KFL1 130305Z 05001KT M04/M09 A3035 RMK A01 T10371088  RH  068%=      5-min Rain = 0
KFL1 130306Z 06000KT M04/M09 A3035 RMK A01 T10421090  RH  070%=      5-min Rain = 0
KFL1 130307Z 14000KT M04/M08 A3036 RMK A01 T10431084  RH  073%=      5-min Rain = 0
KFL1 130308Z 09000KT M04/M09 A3036 RMK A01 T10431086  RH  072%=      5-min Rain = 0
KFL1 130309Z 08001KT M05/M09 A3036 RMK A01 T10451086  RH  073%=      5-min Rain = 0
KFL1 130310Z 09001KT M04/M08 A3036 RMK A01 T10421082  RH  074%=      5-min Rain = 0
KFL1 130311Z 07001KT M04/M09 A3036 RMK A01 T10431087  RH  072%=      5-min Rain = 0
KFL1 130312Z 06002KT M05/M09 A3036 RMK A01 T10461089  RH  072%=      5-min Rain = 0
KFL1 130313Z 08001KT M05/M09 A3036 RMK A01 T10461087  RH  073%=      5-min Rain = 0
KFL1 130314Z 10001KT M05/M09 A3036 RMK A01 T10451086  RH  073%=      5-min Rain = 0
KFL1 130315Z 08001KT M05/M09 A3036 RMK A01 T10451087  RH  073%=      5-min Rain = 0
KFL1 130316Z 09001KT M04/M09 A3036 RMK A01 T10431085  RH  073%=      5-min Rain = 0
KFL1 130317Z 09002KT M04/M08 A3036 RMK A01 T10401081  RH  073%=      5-min Rain = 0
KFL1 130318Z 08002KT M04/M08 A3036 RMK A01 T10401082  RH  073%=      5-min Rain = 0
KFL1 130319Z 08003KT M04/M08 A3036 RMK A01 T10381080  RH  073%=      5-min Rain = 0
KFL1 130320Z 08003KT M04/M08 A3036 RMK A01 T10371079  RH  072%=      5-min Rain = 0
KFL1 130321Z 07003KT M04/M08 A3036 RMK A01 T10351079  RH  071%=      5-min Rain = 0
KFL1 130322Z 06003KT M03/M08 A3036 RMK A01 T10341079  RH  071%=      5-min Rain = 0
KFL1 130323Z 07003KT M03/M08 A3036 RMK A01 T10341079  RH  071%=      5-min Rain = 0
KFL1 130324Z 07002KT M03/M08 A3036 RMK A01 T10331078  RH  071%=      5-min Rain = 0
KFL1 130325Z 06003KT M04/M08 A3036 RMK A01 T10351081  RH  070%=      5-min Rain = 0
KFL1 130326Z 06004KT M04/M08 A3036 RMK A01 T10361082  RH  070%=      5-min Rain = 0
KFL1 130327Z 06003KT M04/M08 A3036 RMK A01 T10371081  RH  071%=      5-min Rain = 0
KFL1 130328Z 05004KT M04/M08 A3036 RMK A01 T10351080  RH  071%=      5-min Rain = 0
KFL1 130329Z 05004KT M04/M09 A3036 RMK A01 T10391085  RH  070%=      5-min Rain = 0
KFL1 130330Z 05004KT M04/M08 A3036 RMK A01 T10391084  RH  071%=      5-min Rain = 0
KFL1 130331Z 05004KT M04/M09 A3036 RMK A01 T10391085  RH  071%=      5-min Rain = 0
KFL1 130332Z 05004KT M04/M09 A3036 RMK A01 T10401085  RH  071%=      5-min Rain = 0
KFL1 130333Z 05004KT M04/M08 A3036 RMK A01 T10401084  RH  071%=      5-min Rain = 0
KFL1 130334Z 05004KT M04/M09 A3036 RMK A01 T10391085  RH  070%=      5-min Rain = 0
KFL1 130335Z 06003KT M04/M09 A3036 RMK A01 T10381087  RH  069%=      5-min Rain = 0
KFL1 130336Z 05004KT M04/M09 A3036 RMK A01 T10391089  RH  068%=      5-min Rain = 0
KFL1 130337Z 05003KT M04/M09 A3036 RMK A01 T10431093  RH  068%=      5-min Rain = 0
KFL1 130338Z 06004KT M05/M10 A3036 RMK A01 T10471095  RH  069%=      5-min Rain = 0
KFL1 130339Z 05004KT M05/M09 A3036 RMK A01 T10471092  RH  071%=      5-min Rain = 0
KFL1 130340Z 05006KT M05/M09 A3036 RMK A01 T10491091  RH  073%=      5-min Rain = 0
KFL1 130341Z 05005KT M05/M09 A3036 RMK A01 T10471085  RH  075%=      5-min Rain = 0
KFL1 130342Z 06004KT M04/M08 A3036 RMK A01 T10431081  RH  075%=      5-min Rain = 0
KFL1 130343Z 06004KT M04/M08 A3036 RMK A01 T10381080  RH  073%=      5-min Rain = 0
KFL1 130344Z 05004KT M03/M08 A3036 RMK A01 T10341081  RH  070%=      5-min Rain = 0
KFL1 130345Z 04004KT M03/M08 A3036 RMK A01 T10301081  RH  068%=      5-min Rain = 0
KFL1 130346Z 04005KT M03/M08 A3036 RMK A01 T10301083  RH  067%=      5-min Rain = 0
KFL1 130347Z 04005KT M03/M08 A3036 RMK A01 T10321084  RH  067%=      5-min Rain = 0
KFL1 130348Z 03005KT M03/M08 A3036 RMK A01 T10311083  RH  067%=      5-min Rain = 0
KFL1 130349Z 03005KT M03/M09 A3037 RMK A01 T10331087  RH  066%=      5-min Rain = 0
KFL1 130350Z 03005KT M04/M09 A3037 RMK A01 T10391092  RH  067%=      5-min Rain = 0
KFL1 130351Z 03005KT M05/M10 A3037 RMK A01 T10471096  RH  068%=      5-min Rain = 0
KFL1 130352Z 03005KT M06/M10 A3037 RMK A01 T10571103  RH  070%=      5-min Rain = 0
KFL1 130353Z 03005KT M06/M10 A3036 RMK A01 T10611102  RH  073%=      5-min Rain = 0
KFL1 130354Z 03005KT M06/M10 A3036 RMK A01 T10631101  RH  075%=      5-min Rain = 0
KFL1 130355Z 02006KT M07/M10 A3036 RMK A01 T10681102  RH  076%=      5-min Rain = 0
KFL1 130356Z 01008KT M07/M10 A3037 RMK A01 T10701102  RH  078%=      5-min Rain = 0
KFL1 130357Z 01007KT M07/M10 A3037 RMK A01 T10701099  RH  080%=      5-min Rain = 0
KFL1 130358Z 02006KT M07/M10 A3037 RMK A01 T10701098  RH  081%=      5-min Rain = 0
KFL1 130359Z 02006KT M07/M10 A3037 RMK A01 T10711098  RH  081%=      5-min Rain = 0
KFL1 130400Z 02006KT M07/M10 A3037 RMK A01 T10701097  RH  081%=      5-min Rain = 0
KFL1 130401Z 02006KT M07/M10 A3037 RMK A01 T10681095  RH  081%=      5-min Rain = 0
KFL1 130402Z 02005KT M07/M10 A3037 RMK A01 T10671095  RH  081%=      5-min Rain = 0
KFL1 130403Z 02006KT M07/M10 A3037 RMK A01 T10671096  RH  080%=      5-min Rain = 0
KFL1 130404Z 02006KT M07/M09 A3037 RMK A01 T10661094  RH  080%=      5-min Rain = 0
KFL1 130405Z 02007KT M06/M09 A3037 RMK A01 T10641093  RH  080%=      5-min Rain = 0
KFL1 130406Z 01007KT M07/M10 A3037 RMK A01 T10651095  RH  079%=      5-min Rain = 0
KFL1 130407Z 01008KT M07/M10 A3037 RMK A01 T10661096  RH  079%=      5-min Rain = 0
KFL1 130408Z 01008KT M07/M10 A3037 RMK A01 T10661096  RH  079%=      5-min Rain = 0
KFL1 130409Z 01008KT M07/M10 A3037 RMK A01 T10661096  RH  079%=      5-min Rain = 0
KFL1 130410Z 00007KT M07/M10 A3037 RMK A01 T10681097  RH  080%=      5-min Rain = 0
KFL1 130411Z 00007KT M07/M10 A3037 RMK A01 T10681097  RH  080%=      5-min Rain = 0
KFL1 130412Z 01007KT M07/M10 A3037 RMK A01 T10681097  RH  080%=      5-min Rain = 0
KFL1 130413Z 03007KT M07/M10 A3037 RMK A01 T10671095  RH  081%=      5-min Rain = 0
KFL1 130414Z 03006KT M06/M09 A3037 RMK A01 T10641091  RH  081%=      5-min Rain = 0
KFL1 130415Z 01007KT M06/M08 A3037 RMK A01 T10551084  RH  080%=      5-min Rain = 0
KFL1 130416Z 02006KT M05/M08 A3037 RMK A01 T10481082  RH  077%=      5-min Rain = 0
KFL1 130417Z 03006KT M05/M09 A3037 RMK A01 T10501088  RH  075%=      5-min Rain = 0
KFL1 130418Z 05006KT M05/M09 A3037 RMK A01 T10521091  RH  074%=      5-min Rain = 0
KFL1 130419Z 03006KT M05/M09 A3037 RMK A01 T10531091  RH  075%=      5-min Rain = 0
KFL1 130420Z 04006KT M05/M09 A3037 RMK A01 T10521090  RH  075%=      5-min Rain = 0
KFL1 130421Z 03007KT M05/M09 A3037 RMK A01 T10501088  RH  075%=      5-min Rain = 0
KFL1 130422Z 02007KT M05/M09 A3037 RMK A01 T10481088  RH  074%=      5-min Rain = 0
KFL1 130423Z 03006KT M05/M09 A3037 RMK A01 T10461087  RH  073%=      5-min Rain = 0
KFL1 130424Z 02007KT M05/M09 A3037 RMK A01 T10451088  RH  072%=      5-min Rain = 0
KFL1 130425Z 01006KT M05/M09 A3037 RMK A01 T10451090  RH  071%=      5-min Rain = 0
KFL1 130426Z 00007KT M05/M09 A3037 RMK A01 T10471094  RH  070%=      5-min Rain = 0
KFL1 130427Z 00007KT M05/M10 A3037 RMK A01 T10541100  RH  070%=      5-min Rain = 0
KFL1 130428Z 00007KT M06/M10 A3037 RMK A01 T10581100  RH  073%=      5-min Rain = 0
KFL1 130429Z 01007KT M06/M10 A3037 RMK A01 T10621100  RH  074%=      5-min Rain = 0
KFL1 130430Z 01008KT M06/M10 A3037 RMK A01 T10631099  RH  076%=      5-min Rain = 0
KFL1 130431Z 01007KT M07/M10 A3038 RMK A01 T10651099  RH  077%=      5-min Rain = 0
KFL1 130432Z 02006KT M07/M10 A3038 RMK A01 T10651098  RH  077%=      5-min Rain = 0
KFL1 130433Z 06004KT M07/M10 A3038 RMK A01 T10651096  RH  078%=      5-min Rain = 0
KFL1 130434Z 03006KT M06/M09 A3038 RMK A01 T10641094  RH  079%=      5-min Rain = 0
KFL1 130435Z 02007KT M06/M09 A3038 RMK A01 T10601091  RH  079%=      5-min Rain = 0
KFL1 130436Z 04006KT M06/M09 A3038 RMK A01 T10571091  RH  077%=      5-min Rain = 0
KFL1 130437Z 03006KT M05/M09 A3038 RMK A01 T10541091  RH  076%=      5-min Rain = 0
KFL1 130438Z 04006KT M05/M09 A3038 RMK A01 T10511089  RH  074%=      5-min Rain = 0
KFL1 130439Z 03006KT M05/M09 A3038 RMK A01 T10491089  RH  073%=      5-min Rain = 0
KFL1 130440Z 02007KT M05/M09 A3038 RMK A01 T10501092  RH  072%=      5-min Rain = 0
KFL1 130441Z 01008KT M05/M09 A3038 RMK A01 T10501092  RH  072%=      5-min Rain = 0
KFL1 130442Z 01009KT M05/M09 A3038 RMK A01 T10521094  RH  072%=      5-min Rain = 0
KFL1 130443Z 00009KT M06/M10 A3038 RMK A01 T10551097  RH  073%=      5-min Rain = 0
KFL1 130444Z 00008KT M06/M10 A3038 RMK A01 T10561095  RH  074%=      5-min Rain = 0
KFL1 130445Z 01008KT M06/M09 A3038 RMK A01 T10561094  RH  075%=      5-min Rain = 0
KFL1 130446Z 01007KT M06/M09 A3038 RMK A01 T10561094  RH  074%=      5-min Rain = 0
KFL1 130447Z 02007KT M06/M09 A3038 RMK A01 T10561094  RH  075%=      5-min Rain = 0
KFL1 130448Z 02006KT M05/M09 A3038 RMK A01 T10541092  RH  075%=      5-min Rain = 0
KFL1 130449Z 02007KT M05/M09 A3038 RMK A01 T10521092  RH  074%=      5-min Rain = 0
KFL1 130450Z 02007KT M05/M09 A3038 RMK A01 T10541094  RH  073%=      5-min Rain = 0
KFL1 130451Z 01007KT M06/M10 A3038 RMK A01 T10581098  RH  073%=      5-min Rain = 0
KFL1 130452Z 01007KT M06/M10 A3038 RMK A01 T10591098  RH  074%=      5-min Rain = 0
KFL1 130453Z 00007KT M06/M10 A3038 RMK A01 T10591097  RH  075%=      5-min Rain = 0
KFL1 130454Z 01007KT M06/M10 A3038 RMK A01 T10581095  RH  075%=      5-min Rain = 0
KFL1 130455Z 02005KT M06/M10 A3038 RMK A01 T10611097  RH  076%=      5-min Rain = 0
KFL1 130456Z 06003KT M06/M10 A3038 RMK A01 T10621097  RH  076%=      5-min Rain = 0
KFL1 130457Z 06006KT M06/M09 A3038 RMK A01 T10601094  RH  077%=      5-min Rain = 0
KFL1 130458Z 06007KT M06/M09 A3038 RMK A01 T10591093  RH  077%=      5-min Rain = 0
KFL1 130459Z 05007KT M06/M09 A3038 RMK A01 T10571093  RH  076%=      5-min Rain = 0
KFL1 130500Z 05007KT M06/M09 A3038 RMK A01 T10581094  RH  076%=      5-min Rain = 0
KFL1 130501Z 05007KT M06/M10 A3038 RMK A01 T10591095  RH  076%=      5-min Rain = 0
KFL1 130502Z 06007KT M06/M10 A3038 RMK A01 T10591096  RH  075%=      5-min Rain = 0
KFL1 130503Z 06007KT M06/M10 A3039 RMK A01 T10581095  RH  075%=      5-min Rain = 0
KFL1 130504Z 06007KT M06/M10 A3039 RMK A01 T10581095  RH  075%=      5-min Rain = 0
KFL1 130505Z 05007KT M06/M09 A3039 RMK A01 T10571094  RH  075%=      5-min Rain = 0
KFL1 130506Z 05009KT M06/M10 A3039 RMK A01 T10601096  RH  075%=      5-min Rain = 0
KFL1 130507Z 04009KT M06/M10 A3039 RMK A01 T10591096  RH  075%=      5-min Rain = 0
KFL1 130508Z 04008KT M06/M09 A3039 RMK A01 T10561094  RH  075%=      5-min Rain = 0
KFL1 130509Z 03007KT M05/M09 A3039 RMK A01 T10531093  RH  074%=      5-min Rain = 0
KFL1 130510Z 03007KT M05/M09 A3039 RMK A01 T10511092  RH  073%=      5-min Rain = 0
KFL1 130511Z 03007KT M05/M09 A3039 RMK A01 T10511094  RH  072%=      5-min Rain = 0
KFL1 130512Z 01007KT M05/M09 A3039 RMK A01 T10501094  RH  071%=      5-min Rain = 0
KFL1 130513Z 01008KT M05/M10 A3039 RMK A01 T10521096  RH  071%=      5-min Rain = 0
KFL1 130514Z 01009KT M06/M10 A3039 RMK A01 T10591103  RH  072%=      5-min Rain = 0
KFL1 130515Z 01008KT M07/M11 A3039 RMK A01 T10651105  RH  073%=      5-min Rain = 0
KFL1 130516Z 00009KT M07/M11 A3039 RMK A01 T10671105  RH  074%=      5-min Rain = 0
KFL1 130517Z 00009KT M07/M10 A3039 RMK A01 T10691104  RH  076%=      5-min Rain = 0
KFL1 130518Z 00010KT M07/M10 A3039 RMK A01 T10691102  RH  077%=      5-min Rain = 0
KFL1 130519Z 00010KT M07/M10 A3039 RMK A01 T10691102  RH  078%=      5-min Rain = 0
KFL1 130520Z 01009KT M07/M10 A3039 RMK A01 T10691101  RH  078%=      5-min Rain = 0
KFL1 130521Z 01009KT M07/M10 A3039 RMK A01 T10661098  RH  078%=      5-min Rain = 0
KFL1 130522Z 02008KT M07/M10 A3039 RMK A01 T10671099  RH  078%=      5-min Rain = 0
KFL1 130523Z 02006KT M07/M10 A3039 RMK A01 T10671100  RH  077%=      5-min Rain = 0
KFL1 130524Z 03005KT M07/M10 A3039 RMK A01 T10661100  RH  077%=      5-min Rain = 0
KFL1 130525Z 02005KT M06/M10 A3039 RMK A01 T10611096  RH  076%=      5-min Rain = 0
KFL1 130526Z 02006KT M06/M10 A3039 RMK A01 T10571095  RH  075%=      5-min Rain = 0
KFL1 130527Z 02006KT M06/M10 A3039 RMK A01 T10561097  RH  073%=      5-min Rain = 0
KFL1 130528Z 03007KT M05/M10 A3039 RMK A01 T10541097  RH  072%=      5-min Rain = 0
KFL1 130529Z 02007KT M06/M10 A3039 RMK A01 T10551099  RH  071%=      5-min Rain = 0
KFL1 130530Z 03007KT M05/M10 A3039 RMK A01 T10521097  RH  070%=      5-min Rain = 0
KFL1 130531Z 03005KT M05/M10 A3039 RMK A01 T10521098  RH  070%=      5-min Rain = 0
KFL1 130532Z 02006KT M05/M10 A3039 RMK A01 T10511098  RH  070%=      5-min Rain = 0
KFL1 130533Z 02008KT M05/M10 A3039 RMK A01 T10511098  RH  070%=      5-min Rain = 0
KFL1 130534Z 01007KT M06/M10 A3039 RMK A01 T10561103  RH  069%=      5-min Rain = 0
KFL1 130535Z 02006KT M06/M11 A3039 RMK A01 T10631108  RH  070%=      5-min Rain = 0
KFL1 130536Z 02005KT M07/M11 A3039 RMK A01 T10651106  RH  073%=      5-min Rain = 0
KFL1 130537Z 01007KT M07/M10 A3039 RMK A01 T10651103  RH  074%=      5-min Rain = 0
KFL1 130538Z 02007KT M06/M10 A3039 RMK A01 T10631101  RH  074%=      5-min Rain = 0
KFL1 130539Z 02006KT M06/M10 A3039 RMK A01 T10641103  RH  074%=      5-min Rain = 0
KFL1 130540Z 02007KT M06/M10 A3039 RMK A01 T10631102  RH  074%=      5-min Rain = 0
KFL1 130541Z 01008KT M06/M10 A3039 RMK A01 T10641103  RH  074%=      5-min Rain = 0
KFL1 130542Z 01008KT M06/M10 A3039 RMK A01 T10641103  RH  074%=      5-min Rain = 0
KFL1 130543Z 01008KT M07/M11 A304 RMK A01 T10661105  RH  074%=      5-min Rain = 0
KFL1 130544Z 01008KT M07/M11 A304 RMK A01 T10691107  RH  075%=      5-min Rain = 0
KFL1 130545Z 01007KT M07/M11 A304 RMK A01 T10691105  RH  076%=      5-min Rain = 0
KFL1 130546Z 01006KT M07/M10 A304 RMK A01 T10681103  RH  076%=      5-min Rain = 0
KFL1 130547Z 01006KT M07/M10 A304 RMK A01 T10661102  RH  076%=      5-min Rain = 0
KFL1 130548Z 00007KT M06/M10 A304 RMK A01 T10631100  RH  076%=      5-min Rain = 0
KFL1 130549Z 00007KT M06/M10 A304 RMK A01 T10621100  RH  074%=      5-min Rain = 0
KFL1 130550Z 01007KT M06/M10 A304 RMK A01 T10631103  RH  073%=      5-min Rain = 0
KFL1 130551Z 01006KT M07/M10 A304 RMK A01 T10651104  RH  073%=      5-min Rain = 0
KFL1 130552Z 01007KT M06/M10 A304 RMK A01 T10641102  RH  074%=      5-min Rain = 0
KFL1 130553Z 04005KT M06/M10 A304 RMK A01 T10621101  RH  074%=      5-min Rain = 0
KFL1 130554Z 04005KT M06/M10 A304 RMK A01 T10611100  RH  074%=      5-min Rain = 0
KFL1 130555Z 04006KT M06/M10 A304 RMK A01 T10601100  RH  074%=      5-min Rain = 0
KFL1 130556Z 03006KT M06/M10 A304 RMK A01 T10571098  RH  073%=      5-min Rain = 0
KFL1 130557Z 02004KT M06/M10 A304 RMK A01 T10551099  RH  072%=      5-min Rain = 0
KFL1 130558Z 02005KT M05/M10 A304 RMK A01 T10521097  RH  071%=      5-min Rain = 0
KFL1 130559Z 03006KT M05/M10 A304 RMK A01 T10501097  RH  070%=      5-min Rain = 0

Page generated in 0.2166 seconds.